Time,TemperatureF,DewpointF,PressureIn,WindDirection,WindDirectionDegrees,WindSpeedMPH,WindSpeedGustMPH,Humidity,HourlyPrecipIn,Conditions,Clouds,dailyrainin,SoftwareType,DateUTC
2017-02-20 00:00:00,29.2,26.9,29.99,SW,228,0.0,0.0,91,0.00,,SKC,0.00,VWS V15.00,2017-02-20 05:00:00,
2017-02-20 00:01:00,29.2,26.9,29.99,SW,228,0.0,0.0,91,0.00,,SKC,0.00,VWS V15.00,2017-02-20 05:01:00,
2017-02-20 00:02:00,29.2,26.9,29.99,SW,228,0.0,0.0,91,0.00,,SKC,0.00,VWS V15.00,2017-02-20 05:02:00,
2017-02-20 00:03:00,29.1,26.8,29.99,SW,228,0.0,0.0,91,0.00,,SKC,0.00,VWS V15.00,2017-02-20 05:03:00,
2017-02-20 00:04:00,29.1,26.8,29.99,SW,228,0.0,0.0,91,0.00,,SKC,0.00,VWS V15.00,2017-02-20 05:04:00,
2017-02-20 00:05:00,29.1,26.8,29.99,SW,228,0.0,0.0,91,0.00,,SKC,0.00,VWS V15.00,2017-02-20 05:05:00,
2017-02-20 00:06:00,29.1,26.8,29.99,SW,228,0.0,0.0,91,0.00,,SKC,0.00,VWS V15.00,2017-02-20 05:06:00,
2017-02-20 00:07:00,29.0,26.7,29.99,SW,228,0.0,0.0,91,0.00,,SKC,0.00,VWS V15.00,2017-02-20 05:07:00,
2017-02-20 00:08:00,29.0,26.7,29.99,SW,228,0.0,0.0,91,0.00,,SKC,0.00,VWS V15.00,2017-02-20 05:08:00,
2017-02-20 00:09:00,29.0,26.7,29.99,SW,228,0.0,0.0,91,0.00,,SKC,0.00,VWS V15.00,2017-02-20 05:09:00,
2017-02-20 00:10:00,29.0,26.7,29.99,SW,228,0.0,0.0,91,0.00,,SKC,0.00,VWS V15.00,2017-02-20 05:10:00,
2017-02-20 00:11:00,28.9,26.6,29.99,SW,228,0.0,0.0,91,0.00,,SKC,0.00,VWS V15.00,2017-02-20 05:11:00,
2017-02-20 00:12:00,28.9,26.6,29.99,SW,228,0.0,0.0,91,0.00,,SKC,0.00,VWS V15.00,2017-02-20 05:12:00,
2017-02-20 00:13:00,28.9,26.6,29.99,SW,228,0.0,0.0,91,0.00,,SKC,0.00,VWS V15.00,2017-02-20 05:13:00,
2017-02-20 00:14:00,28.9,26.6,29.99,SW,228,0.0,0.0,91,0.00,,SKC,0.00,VWS V15.00,2017-02-20 05:14:00,
2017-02-20 00:15:00,28.9,26.6,30.00,SW,228,0.0,0.0,91,0.00,,SKC,0.00,VWS V15.00,2017-02-20 05:15:00,
2017-02-20 00:16:00,28.9,26.6,30.00,SW,228,0.0,0.0,91,0.00,,SKC,0.00,VWS V15.00,2017-02-20 05:16:00,
2017-02-20 00:17:00,28.9,26.6,30.00,SW,228,0.0,0.0,91,0.00,,SKC,0.00,VWS V15.00,2017-02-20 05:17:00,
2017-02-20 00:18:00,28.8,26.8,30.00,SW,228,0.0,0.0,92,0.00,,SKC,0.00,VWS V15.00,2017-02-20 05:18:00,
2017-02-20 00:19:00,28.8,26.8,30.00,SW,228,0.0,0.0,92,0.00,,SKC,0.00,VWS V15.00,2017-02-20 05:19:00,
2017-02-20 00:20:00,28.8,26.8,30.00,SW,228,0.0,0.0,92,0.00,,SKC,0.00,VWS V15.00,2017-02-20 05:20:00,
2017-02-20 00:21:00,28.8,26.8,30.00,SW,228,0.0,0.0,92,0.00,,SKC,0.00,VWS V15.00,2017-02-20 05:21:00,
2017-02-20 00:22:00,28.8,26.8,30.00,SW,228,0.0,0.0,92,0.00,,SKC,0.00,VWS V15.00,2017-02-20 05:22:00,
2017-02-20 00:23:00,28.8,26.8,30.00,SW,228,0.0,0.0,92,0.00,,SKC,0.00,VWS V15.00,2017-02-20 05:23:00,
2017-02-20 00:24:00,28.8,26.5,30.00,SW,228,0.0,0.0,91,0.00,,SKC,0.00,VWS V15.00,2017-02-20 05:24:00,
2017-02-20 00:25:00,28.8,26.5,30.00,SW,228,0.0,0.0,91,0.00,,SKC,0.00,VWS V15.00,2017-02-20 05:25:00,
2017-02-20 00:26:00,28.7,26.4,30.00,SW,228,0.0,0.0,91,0.00,,SKC,0.00,VWS V15.00,2017-02-20 05:26:00,
2017-02-20 00:27:00,28.7,26.4,30.00,SW,228,0.0,0.0,91,0.00,,SKC,0.00,VWS V15.00,2017-02-20 05:27:00,
2017-02-20 00:28:00,28.7,26.7,30.00,SW,228,0.0,0.0,92,0.00,,SKC,0.00,VWS V15.00,2017-02-20 05:28:00,
2017-02-20 00:29:00,28.7,26.7,30.00,SW,228,0.0,0.0,92,0.00,,SKC,0.00,VWS V15.00,2017-02-20 05:29:00,
2017-02-20 00:30:00,28.7,26.7,30.00,SW,228,0.0,0.0,92,0.00,,SKC,0.00,VWS V15.00,2017-02-20 05:30:00,
2017-02-20 00:31:00,28.7,26.7,30.00,SW,228,0.0,0.0,92,0.00,,SKC,0.00,VWS V15.00,2017-02-20 05:31:00,
2017-02-20 00:32:00,28.6,26.6,30.00,SW,228,0.0,0.0,92,0.00,,SKC,0.00,VWS V15.00,2017-02-20 05:32:00,
2017-02-20 00:33:00,28.6,26.6,30.00,SW,228,0.0,0.0,92,0.00,,SKC,0.00,VWS V15.00,2017-02-20 05:33:00,
2017-02-20 00:34:00,28.6,26.6,30.00,SW,228,0.0,0.0,92,0.00,,SKC,0.00,VWS V15.00,2017-02-20 05:34:00,
2017-02-20 00:35:00,28.6,26.6,30.00,SW,228,0.0,0.0,92,0.00,,SKC,0.00,VWS V15.00,2017-02-20 05:35:00,
2017-02-20 00:36:00,28.6,26.6,30.00,SW,228,0.0,0.0,92,0.00,,SKC,0.00,VWS V15.00,2017-02-20 05:36:00,
2017-02-20 00:37:00,28.6,26.6,30.01,SW,228,0.0,0.0,92,0.00,,SKC,0.00,VWS V15.00,2017-02-20 05:37:00,
2017-02-20 00:38:00,28.5,26.5,30.01,SW,228,0.0,0.0,92,0.00,,SKC,0.00,VWS V15.00,2017-02-20 05:38:00,
2017-02-20 00:39:00,28.5,26.5,30.01,SW,228,0.0,0.0,92,0.00,,SKC,0.00,VWS V15.00,2017-02-20 05:39:00,
2017-02-20 00:40:00,28.5,26.5,30.01,SW,228,0.0,0.0,92,0.00,,SKC,0.00,VWS V15.00,2017-02-20 05:40:00,
2017-02-20 00:41:00,28.5,26.5,30.01,SW,228,0.0,0.0,92,0.00,,SKC,0.00,VWS V15.00,2017-02-20 05:41:00,
2017-02-20 00:42:00,28.5,26.5,30.01,SW,228,0.0,0.0,92,0.00,,SKC,0.00,VWS V15.00,2017-02-20 05:42:00,
2017-02-20 00:43:00,28.5,26.5,30.01,SW,228,0.0,0.0,92,0.00,,SKC,0.00,VWS V15.00,2017-02-20 05:43:00,
2017-02-20 00:44:00,28.5,26.5,30.01,SW,228,0.0,0.0,92,0.00,,SKC,0.00,VWS V15.00,2017-02-20 05:44:00,
2017-02-20 00:45:00,28.5,26.5,30.01,SW,228,0.0,0.0,92,0.00,,SKC,0.00,VWS V15.00,2017-02-20 05:45:00,
2017-02-20 00:46:00,28.5,26.5,30.01,SW,228,0.0,0.0,92,0.00,,SKC,0.00,VWS V15.00,2017-02-20 05:46:00,
2017-02-20 00:47:00,28.4,26.4,30.01,SW,228,0.0,0.0,92,0.00,,SKC,0.00,VWS V15.00,2017-02-20 05:47:00,
2017-02-20 00:48:00,28.5,26.5,30.01,SW,228,0.0,0.0,92,0.00,,SKC,0.00,VWS V15.00,2017-02-20 05:48:00,
2017-02-20 00:49:00,28.4,26.4,30.01,SW,228,0.0,0.0,92,0.00,,SKC,0.00,VWS V15.00,2017-02-20 05:49:00,
2017-02-20 00:50:00,28.4,26.4,30.01,SW,228,0.0,0.0,92,0.00,,SKC,0.00,VWS V15.00,2017-02-20 05:50:00,
2017-02-20 00:51:00,28.4,26.4,30.01,SW,228,0.0,0.0,92,0.00,,SKC,0.00,VWS V15.00,2017-02-20 05:51:00,
2017-02-20 00:52:00,28.4,26.4,30.01,SW,228,0.0,0.0,92,0.00,,SKC,0.00,VWS V15.00,2017-02-20 05:52:00,
2017-02-20 00:53:00,28.4,26.4,30.01,SW,228,0.0,0.0,92,0.00,,SKC,0.00,VWS V15.00,2017-02-20 05:53:00,
2017-02-20 00:54:00,28.4,26.4,30.01,SW,228,0.0,0.0,92,0.00,,SKC,0.00,VWS V15.00,2017-02-20 05:54:00,
2017-02-20 00:55:00,28.4,26.4,30.01,SW,228,0.0,0.0,92,0.00,,SKC,0.00,VWS V15.00,2017-02-20 05:55:00,
2017-02-20 00:56:00,28.3,26.3,30.01,SW,228,0.0,0.0,92,0.00,,SKC,0.00,VWS V15.00,2017-02-20 05:56:00,
2017-02-20 00:57:00,28.4,26.4,30.01,SW,228,0.0,0.0,92,0.00,,SKC,0.00,VWS V15.00,2017-02-20 05:57:00,
2017-02-20 00:58:00,28.4,26.4,30.01,SW,228,0.0,0.0,92,0.00,,SKC,0.00,VWS V15.00,2017-02-20 05:58:00,
2017-02-20 00:59:00,28.4,26.4,30.01,SW,228,0.0,0.0,92,0.00,,SKC,0.00,VWS V15.00,2017-02-20 05:59:00,
2017-02-20 01:00:00,28.4,26.4,30.01,SW,228,0.0,0.0,92,0.00,,SKC,0.00,VWS V15.00,2017-02-20 06:00:00,
2017-02-20 01:01:00,28.5,26.5,30.01,SW,228,0.0,0.0,92,0.00,,SKC,0.00,VWS V15.00,2017-02-20 06:01:00,
2017-02-20 01:02:00,28.5,26.5,30.01,SW,228,0.0,0.0,92,0.00,,SKC,0.00,VWS V15.00,2017-02-20 06:02:00,
2017-02-20 01:03:00,28.5,26.5,30.01,SW,228,0.0,0.0,92,0.00,,SKC,0.00,VWS V15.00,2017-02-20 06:03:00,
2017-02-20 01:04:00,28.6,26.6,30.01,SW,228,0.0,0.0,92,0.00,,SKC,0.00,VWS V15.00,2017-02-20 06:04:00,
2017-02-20 01:05:00,28.6,26.6,30.01,SW,228,0.0,1.0,92,0.00,,SKC,0.00,VWS V15.00,2017-02-20 06:05:00,
2017-02-20 01:06:00,28.7,26.7,30.01,WSW,248,1.0,2.0,92,0.00,,SKC,0.00,VWS V15.00,2017-02-20 06:06:00,
2017-02-20 01:07:00,28.7,26.9,30.01,WSW,248,1.0,2.0,93,0.00,,SKC,0.00,VWS V15.00,2017-02-20 06:07:00,
2017-02-20 01:08:00,28.9,27.1,30.01,WSW,248,1.0,2.0,93,0.00,,SKC,0.00,VWS V15.00,2017-02-20 06:08:00,
2017-02-20 01:09:00,29.0,27.2,30.01,WSW,248,0.0,2.0,93,0.00,,SKC,0.00,VWS V15.00,2017-02-20 06:09:00,
2017-02-20 01:10:00,29.1,27.3,30.01,WSW,248,0.0,2.0,93,0.00,,SKC,0.00,VWS V15.00,2017-02-20 06:10:00,
2017-02-20 01:11:00,29.2,27.4,30.01,WSW,248,1.0,2.0,93,0.00,,SKC,0.00,VWS V15.00,2017-02-20 06:11:00,
2017-02-20 01:12:00,29.4,27.6,30.01,WSW,248,1.0,2.0,93,0.00,,SKC,0.00,VWS V15.00,2017-02-20 06:12:00,
2017-02-20 01:13:00,29.6,27.8,30.01,WSW,248,0.0,2.0,93,0.00,,SKC,0.00,VWS V15.00,2017-02-20 06:13:00,
2017-02-20 01:14:00,29.6,27.8,30.01,WSW,248,0.0,2.0,93,0.00,,SKC,0.00,VWS V15.00,2017-02-20 06:14:00,
2017-02-20 01:15:00,29.8,28.3,30.02,WNW,301,1.0,3.0,94,0.00,,SKC,0.00,VWS V15.00,2017-02-20 06:15:00,
2017-02-20 01:16:00,30.1,28.3,30.02,WNW,301,1.0,3.0,93,0.00,,SKC,0.00,VWS V15.00,2017-02-20 06:16:00,
2017-02-20 01:17:00,30.4,28.9,30.02,WNW,301,1.0,3.0,94,0.00,,SKC,0.00,VWS V15.00,2017-02-20 06:17:00,
2017-02-20 01:18:00,30.6,29.1,30.02,WNW,301,1.0,3.0,94,0.00,,SKC,0.00,VWS V15.00,2017-02-20 06:18:00,
2017-02-20 01:19:00,31.0,29.5,30.02,WNW,302,1.0,3.0,94,0.00,,SKC,0.00,VWS V15.00,2017-02-20 06:19:00,
2017-02-20 01:20:00,31.2,29.7,30.02,WNW,302,3.0,3.0,94,0.00,,SKC,0.00,VWS V15.00,2017-02-20 06:20:00,
2017-02-20 01:21:00,31.4,29.9,30.02,WNW,303,1.0,3.0,94,0.00,,SKC,0.00,VWS V15.00,2017-02-20 06:21:00,
2017-02-20 01:22:00,31.7,30.2,30.02,WNW,303,0.0,3.0,94,0.00,,SKC,0.00,VWS V15.00,2017-02-20 06:22:00,
2017-02-20 01:23:00,31.8,30.3,30.02,WNW,303,0.0,3.0,94,0.00,,SKC,0.00,VWS V15.00,2017-02-20 06:23:00,
2017-02-20 01:24:00,31.9,30.4,30.02,WNW,303,0.0,3.0,94,0.00,,SKC,0.00,VWS V15.00,2017-02-20 06:24:00,
2017-02-20 01:25:00,32.0,30.5,30.02,WNW,303,0.0,3.0,94,0.00,,SKC,0.00,VWS V15.00,2017-02-20 06:25:00,
2017-02-20 01:26:00,32.1,30.6,30.02,WNW,303,0.0,3.0,94,0.00,,SKC,0.00,VWS V15.00,2017-02-20 06:26:00,
2017-02-20 01:27:00,32.2,30.7,30.02,NW,308,1.0,3.0,94,0.00,,SKC,0.00,VWS V15.00,2017-02-20 06:27:00,
2017-02-20 01:28:00,32.4,30.9,30.02,NW,308,1.0,3.0,94,0.00,,SKC,0.00,VWS V15.00,2017-02-20 06:28:00,
2017-02-20 01:29:00,32.7,31.2,30.03,NW,308,0.0,3.0,94,0.00,,SKC,0.00,VWS V15.00,2017-02-20 06:29:00,
2017-02-20 01:30:00,32.9,31.4,30.03,NW,308,0.0,3.0,94,0.00,,SKC,0.00,VWS V15.00,2017-02-20 06:30:00,
2017-02-20 01:31:00,33.0,31.2,30.03,NW,308,1.0,1.0,93,0.00,,SKC,0.00,VWS V15.00,2017-02-20 06:31:00,
2017-02-20 01:32:00,33.2,31.4,30.03,NW,308,0.0,1.0,93,0.00,,SKC,0.00,VWS V15.00,2017-02-20 06:32:00,
2017-02-20 01:33:00,33.3,31.5,30.03,NW,308,0.0,2.0,93,0.00,,SKC,0.00,VWS V15.00,2017-02-20 06:33:00,
2017-02-20 01:34:00,33.4,31.6,30.03,NW,308,1.0,2.0,93,0.00,,SKC,0.00,VWS V15.00,2017-02-20 06:34:00,
2017-02-20 01:35:00,33.5,31.7,30.03,NW,308,1.0,2.0,93,0.00,,SKC,0.00,VWS V15.00,2017-02-20 06:35:00,
2017-02-20 01:36:00,33.7,31.6,30.03,NW,308,1.0,2.0,92,0.00,,SKC,0.00,VWS V15.00,2017-02-20 06:36:00,
2017-02-20 01:37:00,33.7,31.6,30.03,NW,308,0.0,2.0,92,0.00,,SKC,0.00,VWS V15.00,2017-02-20 06:37:00,
2017-02-20 01:38:00,33.9,31.8,30.03,NW,308,0.0,2.0,92,0.00,,SKC,0.00,VWS V15.00,2017-02-20 06:38:00,
2017-02-20 01:39:00,33.9,31.6,30.03,NW,308,0.0,2.0,91,0.00,,SKC,0.00,VWS V15.00,2017-02-20 06:39:00,
2017-02-20 01:40:00,33.9,31.6,30.03,NW,308,0.0,2.0,91,0.00,,SKC,0.00,VWS V15.00,2017-02-20 06:40:00,
2017-02-20 01:41:00,34.0,31.6,30.03,NW,308,1.0,2.0,91,0.00,,SKC,0.00,VWS V15.00,2017-02-20 06:41:00,
2017-02-20 01:42:00,34.1,31.8,30.04,NW,308,0.0,2.0,91,0.00,,SKC,0.00,VWS V15.00,2017-02-20 06:42:00,
2017-02-20 01:43:00,34.1,31.5,30.04,NW,308,0.0,2.0,90,0.00,,SKC,0.00,VWS V15.00,2017-02-20 06:43:00,
2017-02-20 01:44:00,34.2,31.6,30.04,NW,308,1.0,2.0,90,0.00,,SKC,0.00,VWS V15.00,2017-02-20 06:44:00,
2017-02-20 01:45:00,34.2,31.6,30.04,NW,308,0.0,2.0,90,0.00,,SKC,0.00,VWS V15.00,2017-02-20 06:45:00,
2017-02-20 01:46:00,34.2,31.3,30.04,NW,308,0.0,2.0,89,0.00,,SKC,0.00,VWS V15.00,2017-02-20 06:46:00,
2017-02-20 01:47:00,34.2,31.3,30.04,NW,308,0.0,2.0,89,0.00,,SKC,0.00,VWS V15.00,2017-02-20 06:47:00,
2017-02-20 01:48:00,34.3,31.4,30.04,NW,308,0.0,2.0,89,0.00,,SKC,0.00,VWS V15.00,2017-02-20 06:48:00,
2017-02-20 01:49:00,34.3,31.4,30.04,NW,308,2.0,2.0,89,0.00,,SKC,0.00,VWS V15.00,2017-02-20 06:49:00,
2017-02-20 01:50:00,34.2,31.3,30.04,NW,308,1.0,2.0,89,0.00,,SKC,0.00,VWS V15.00,2017-02-20 06:50:00,
2017-02-20 01:51:00,34.3,31.4,30.04,NW,308,0.0,2.0,89,0.00,,SKC,0.00,VWS V15.00,2017-02-20 06:51:00,
2017-02-20 01:52:00,34.4,31.5,30.04,NW,308,1.0,2.0,89,0.00,,SKC,0.00,VWS V15.00,2017-02-20 06:52:00,
2017-02-20 01:53:00,34.4,31.5,30.05,NW,308,0.0,2.0,89,0.00,,SKC,0.00,VWS V15.00,2017-02-20 06:53:00,
2017-02-20 01:54:00,34.5,31.3,30.05,NW,308,1.0,2.0,88,0.00,,SKC,0.00,VWS V15.00,2017-02-20 06:54:00,
2017-02-20 01:55:00,34.6,31.4,30.05,NW,308,0.0,2.0,88,0.00,,SKC,0.00,VWS V15.00,2017-02-20 06:55:00,
2017-02-20 01:56:00,34.7,31.5,30.05,NW,308,0.0,2.0,88,0.00,,SKC,0.00,VWS V15.00,2017-02-20 06:56:00,
2017-02-20 01:57:00,34.8,31.6,30.05,NW,308,2.0,2.0,88,0.00,,SKC,0.00,VWS V15.00,2017-02-20 06:57:00,
2017-02-20 01:58:00,34.9,31.4,30.05,NW,308,1.0,2.0,87,0.00,,SKC,0.00,VWS V15.00,2017-02-20 06:58:00,
2017-02-20 01:59:00,34.9,31.4,30.05,NW,308,0.0,2.0,87,0.00,,SKC,0.00,VWS V15.00,2017-02-20 06:59:00,
2017-02-20 02:00:00,34.9,31.4,30.05,NW,308,0.0,2.0,87,0.00,,SKC,0.00,VWS V15.00,2017-02-20 07:00:00,
2017-02-20 02:01:00,35.0,31.5,30.05,NW,308,1.0,2.0,87,0.00,,SKC,0.00,VWS V15.00,2017-02-20 07:01:00,
2017-02-20 02:02:00,35.1,31.3,30.05,NW,308,0.0,2.0,86,0.00,,SKC,0.00,VWS V15.00,2017-02-20 07:02:00,
2017-02-20 02:03:00,35.1,31.3,30.05,NW,308,2.0,2.0,86,0.00,,SKC,0.00,VWS V15.00,2017-02-20 07:03:00,
2017-02-20 02:04:00,35.2,31.4,30.05,NW,308,1.0,2.0,86,0.00,,SKC,0.00,VWS V15.00,2017-02-20 07:04:00,
2017-02-20 02:05:00,35.3,31.5,30.05,NW,308,1.0,2.0,86,0.00,,SKC,0.00,VWS V15.00,2017-02-20 07:05:00,
2017-02-20 02:06:00,35.4,31.4,30.05,NW,307,1.0,3.0,85,0.00,,SKC,0.00,VWS V15.00,2017-02-20 07:06:00,
2017-02-20 02:07:00,35.5,31.5,30.05,NW,311,2.0,3.0,85,0.00,,SKC,0.00,VWS V15.00,2017-02-20 07:07:00,
2017-02-20 02:08:00,35.6,31.5,30.05,NW,311,0.0,3.0,85,0.00,,SKC,0.00,VWS V15.00,2017-02-20 07:08:00,
2017-02-20 02:09:00,35.7,31.4,30.05,NW,311,0.0,3.0,84,0.00,,SKC,0.00,VWS V15.00,2017-02-20 07:09:00,
2017-02-20 02:10:00,35.8,31.5,30.05,NW,311,1.0,3.0,84,0.00,,SKC,0.00,VWS V15.00,2017-02-20 07:10:00,
2017-02-20 02:11:00,35.9,31.5,30.06,NW,309,2.0,3.0,84,0.00,,SKC,0.00,VWS V15.00,2017-02-20 07:11:00,
2017-02-20 02:12:00,36.0,31.6,30.06,NW,311,3.0,3.0,84,0.00,,SKC,0.00,VWS V15.00,2017-02-20 07:12:00,
2017-02-20 02:13:00,36.2,31.5,30.06,NW,313,3.0,3.0,83,0.00,,SKC,0.00,VWS V15.00,2017-02-20 07:13:00,
2017-02-20 02:14:00,36.3,31.6,30.06,NW,313,2.0,3.0,83,0.00,,SKC,0.00,VWS V15.00,2017-02-20 07:14:00,
2017-02-20 02:15:00,36.4,31.4,30.06,NW,315,1.0,3.0,82,0.00,,SKC,0.00,VWS V15.00,2017-02-20 07:15:00,
2017-02-20 02:16:00,36.5,31.5,30.06,NW,314,0.0,3.0,82,0.00,,SKC,0.00,VWS V15.00,2017-02-20 07:16:00,
2017-02-20 02:17:00,36.6,31.6,30.06,NW,315,1.0,3.0,82,0.00,,SKC,0.00,VWS V15.00,2017-02-20 07:17:00,
2017-02-20 02:18:00,36.6,31.6,30.06,NW,314,1.0,3.0,82,0.00,,SKC,0.00,VWS V15.00,2017-02-20 07:18:00,
2017-02-20 02:19:00,36.6,31.6,30.06,NW,314,0.0,3.0,82,0.00,,SKC,0.00,VWS V15.00,2017-02-20 07:19:00,
2017-02-20 02:20:00,36.6,31.6,30.06,NW,314,1.0,3.0,82,0.00,,SKC,0.00,VWS V15.00,2017-02-20 07:20:00,
2017-02-20 02:21:00,36.6,31.3,30.06,NW,314,1.0,3.0,81,0.00,,SKC,0.00,VWS V15.00,2017-02-20 07:21:00,
2017-02-20 02:22:00,36.6,31.3,30.06,NW,315,2.0,3.0,81,0.00,,SKC,0.00,VWS V15.00,2017-02-20 07:22:00,
2017-02-20 02:23:00,36.7,31.4,30.07,NW,317,1.0,4.0,81,0.00,,SKC,0.00,VWS V15.00,2017-02-20 07:23:00,
2017-02-20 02:24:00,36.8,31.5,30.07,NW,318,3.0,4.0,81,0.00,,SKC,0.00,VWS V15.00,2017-02-20 07:24:00,
2017-02-20 02:25:00,36.9,31.6,30.07,NW,318,1.0,4.0,81,0.00,,SKC,0.00,VWS V15.00,2017-02-20 07:25:00,
2017-02-20 02:26:00,37.0,31.7,30.07,NW,318,0.0,4.0,81,0.00,,SKC,0.00,VWS V15.00,2017-02-20 07:26:00,
2017-02-20 02:27:00,37.0,31.7,30.07,NW,318,0.0,4.0,81,0.00,,SKC,0.00,VWS V15.00,2017-02-20 07:27:00,
2017-02-20 02:28:00,37.1,31.5,30.07,NW,318,1.0,4.0,80,0.00,,SKC,0.00,VWS V15.00,2017-02-20 07:28:00,
2017-02-20 02:29:00,37.1,31.5,30.07,NW,318,2.0,4.0,80,0.00,,SKC,0.00,VWS V15.00,2017-02-20 07:29:00,
2017-02-20 02:30:00,37.1,31.5,30.07,NW,321,2.0,4.0,80,0.00,,SKC,0.00,VWS V15.00,2017-02-20 07:30:00,
2017-02-20 02:31:00,37.2,31.6,30.07,NW,321,1.0,2.0,80,0.00,,SKC,0.00,VWS V15.00,2017-02-20 07:31:00,
2017-02-20 02:32:00,37.3,31.4,30.07,NW,306,2.0,3.0,79,0.00,,SKC,0.00,VWS V15.00,2017-02-20 07:32:00,
2017-02-20 02:33:00,37.3,31.4,30.07,WNW,302,2.0,3.0,79,0.00,,SKC,0.00,VWS V15.00,2017-02-20 07:33:00,
2017-02-20 02:34:00,37.4,31.5,30.07,NW,305,2.0,3.0,79,0.00,,SKC,0.00,VWS V15.00,2017-02-20 07:34:00,
2017-02-20 02:35:00,37.4,31.2,30.07,NW,305,3.0,3.0,78,0.00,,SKC,0.00,VWS V15.00,2017-02-20 07:35:00,
2017-02-20 02:36:00,37.5,31.3,30.08,NW,306,2.0,4.0,78,0.00,,SKC,0.00,VWS V15.00,2017-02-20 07:36:00,
2017-02-20 02:37:00,37.5,31.3,30.08,NW,326,3.0,4.0,78,0.00,,SKC,0.00,VWS V15.00,2017-02-20 07:37:00,
2017-02-20 02:38:00,37.6,31.4,30.08,NW,323,3.0,4.0,78,0.00,,SKC,0.00,VWS V15.00,2017-02-20 07:38:00,
2017-02-20 02:39:00,37.7,31.5,30.08,NW,320,3.0,4.0,78,0.00,,SKC,0.00,VWS V15.00,2017-02-20 07:39:00,
2017-02-20 02:40:00,37.8,31.2,30.08,NW,315,5.0,6.0,77,0.00,,SKC,0.00,VWS V15.00,2017-02-20 07:40:00,
2017-02-20 02:41:00,37.8,31.2,30.08,NW,309,3.0,6.0,77,0.00,,SKC,0.00,VWS V15.00,2017-02-20 07:41:00,
2017-02-20 02:42:00,37.9,31.4,30.08,NW,306,5.0,6.0,77,0.00,,SKC,0.00,VWS V15.00,2017-02-20 07:42:00,
2017-02-20 02:43:00,37.9,31.4,30.08,NW,319,3.0,6.0,77,0.00,,SKC,0.00,VWS V15.00,2017-02-20 07:43:00,
2017-02-20 02:44:00,38.0,31.1,30.08,NW,306,6.0,6.0,76,0.00,,SKC,0.00,VWS V15.00,2017-02-20 07:44:00,
2017-02-20 02:45:00,38.0,31.1,30.08,West,269,3.0,6.0,76,0.00,,SKC,0.00,VWS V15.00,2017-02-20 07:45:00,
2017-02-20 02:46:00,38.0,31.1,30.08,WNW,286,5.0,6.0,76,0.00,,SKC,0.00,VWS V15.00,2017-02-20 07:46:00,
2017-02-20 02:47:00,38.1,31.2,30.08,WSW,246,3.0,6.0,76,0.00,,SKC,0.00,VWS V15.00,2017-02-20 07:47:00,
2017-02-20 02:48:00,38.2,31.3,30.08,NW,304,2.0,6.0,76,0.00,,SKC,0.00,VWS V15.00,2017-02-20 07:48:00,
2017-02-20 02:49:00,38.2,31.3,30.08,West,273,6.0,6.0,76,0.00,,SKC,0.00,VWS V15.00,2017-02-20 07:49:00,
2017-02-20 02:50:00,38.2,31.3,30.08,WNW,290,2.0,6.0,76,0.00,,SKC,0.00,VWS V15.00,2017-02-20 07:50:00,
2017-02-20 02:51:00,38.3,31.1,30.08,NNW,344,3.0,6.0,75,0.00,,SKC,0.00,VWS V15.00,2017-02-20 07:51:00,
2017-02-20 02:52:00,38.3,31.1,30.08,NNW,343,3.0,6.0,75,0.00,,SKC,0.00,VWS V15.00,2017-02-20 07:52:00,
2017-02-20 02:53:00,38.3,31.1,30.08,NNW,336,4.0,6.0,75,0.00,,SKC,0.00,VWS V15.00,2017-02-20 07:53:00,
2017-02-20 02:54:00,38.4,31.2,30.08,NNW,336,2.0,6.0,75,0.00,,SKC,0.00,VWS V15.00,2017-02-20 07:54:00,
2017-02-20 02:55:00,38.4,31.2,30.08,NNW,348,3.0,6.0,75,0.00,,SKC,0.00,VWS V15.00,2017-02-20 07:55:00,
2017-02-20 02:56:00,38.4,31.2,30.09,NNW,346,3.0,6.0,75,0.00,,SKC,0.00,VWS V15.00,2017-02-20 07:56:00,
2017-02-20 02:57:00,38.5,31.3,30.09,NNW,333,5.0,6.0,75,0.00,,SKC,0.00,VWS V15.00,2017-02-20 07:57:00,
2017-02-20 02:58:00,38.5,31.3,30.09,NNW,346,6.0,6.0,75,0.00,,SKC,0.00,VWS V15.00,2017-02-20 07:58:00,
2017-02-20 02:59:00,38.6,31.0,30.09,NNW,343,3.0,8.0,74,0.00,,SKC,0.00,VWS V15.00,2017-02-20 07:59:00,
2017-02-20 03:00:00,38.6,31.0,30.09,NNW,338,5.0,8.0,74,0.00,,SKC,0.00,VWS V15.00,2017-02-20 08:00:00,
2017-02-20 03:01:00,38.6,31.0,30.09,NW,307,3.0,5.0,74,0.00,,SKC,0.00,VWS V15.00,2017-02-20 08:01:00,
2017-02-20 03:02:00,38.7,30.8,30.09,NW,313,6.0,6.0,73,0.00,,SKC,0.00,VWS V15.00,2017-02-20 08:02:00,
2017-02-20 03:03:00,38.7,30.5,30.09,NW,322,3.0,7.0,72,0.00,,SKC,0.00,VWS V15.00,2017-02-20 08:03:00,
2017-02-20 03:04:00,38.8,30.6,30.09,NNW,340,3.0,7.0,72,0.00,,SKC,0.00,VWS V15.00,2017-02-20 08:04:00,
2017-02-20 03:05:00,38.8,30.6,30.09,NW,311,2.0,7.0,72,0.00,,SKC,0.00,VWS V15.00,2017-02-20 08:05:00,
2017-02-20 03:06:00,38.9,30.7,30.09,NNW,343,3.0,7.0,72,0.00,,SKC,0.00,VWS V15.00,2017-02-20 08:06:00,
2017-02-20 03:07:00,38.9,30.3,30.09,NW,311,2.0,7.0,71,0.00,,SKC,0.00,VWS V15.00,2017-02-20 08:07:00,
2017-02-20 03:08:00,39.0,30.4,30.09,NW,311,4.0,7.0,71,0.00,,SKC,0.00,VWS V15.00,2017-02-20 08:08:00,
2017-02-20 03:09:00,39.0,30.1,30.09,WNW,292,5.0,7.0,70,0.00,,SKC,0.00,VWS V15.00,2017-02-20 08:09:00,
2017-02-20 03:10:00,39.1,30.2,30.09,WNW,286,1.0,7.0,70,0.00,,SKC,0.00,VWS V15.00,2017-02-20 08:10:00,
2017-02-20 03:11:00,39.1,30.2,30.09,WNW,300,5.0,7.0,70,0.00,,SKC,0.00,VWS V15.00,2017-02-20 08:11:00,
2017-02-20 03:12:00,39.1,30.2,30.10,NW,304,3.0,7.0,70,0.00,,SKC,0.00,VWS V15.00,2017-02-20 08:12:00,
2017-02-20 03:13:00,39.2,30.2,30.10,NW,319,6.0,7.0,70,0.00,,SKC,0.00,VWS V15.00,2017-02-20 08:13:00,
2017-02-20 03:14:00,39.3,30.4,30.10,NW,313,3.0,7.0,70,0.00,,SKC,0.00,VWS V15.00,2017-02-20 08:14:00,
2017-02-20 03:15:00,39.3,30.4,30.10,NW,322,4.0,7.0,70,0.00,,SKC,0.00,VWS V15.00,2017-02-20 08:15:00,
2017-02-20 03:16:00,39.3,30.4,30.10,North,355,7.0,7.0,70,0.00,,SKC,0.00,VWS V15.00,2017-02-20 08:16:00,
2017-02-20 03:17:00,39.4,30.1,30.10,NW,321,2.0,7.0,69,0.00,,SKC,0.00,VWS V15.00,2017-02-20 08:17:00,
2017-02-20 03:18:00,39.4,30.1,30.10,NNW,339,5.0,7.0,69,0.00,,SKC,0.00,VWS V15.00,2017-02-20 08:18:00,
2017-02-20 03:19:00,39.5,30.2,30.10,NNW,329,3.0,7.0,69,0.00,,SKC,0.00,VWS V15.00,2017-02-20 08:19:00,
2017-02-20 03:20:00,39.5,30.2,30.10,NW,311,4.0,7.0,69,0.00,,SKC,0.00,VWS V15.00,2017-02-20 08:20:00,
2017-02-20 03:21:00,39.5,30.2,30.10,NW,311,6.0,7.0,69,0.00,,CLR,0.00,VWS V15.00,2017-02-20 08:21:00,
2017-02-20 03:22:00,39.5,30.2,30.10,NNW,346,5.0,7.0,69,0.00,,CLR,0.00,VWS V15.00,2017-02-20 08:22:00,
2017-02-20 03:23:00,39.6,30.3,30.10,NNW,335,3.0,7.0,69,0.00,,CLR,0.00,VWS V15.00,2017-02-20 08:23:00,
2017-02-20 03:24:00,39.6,30.3,30.10,North,350,4.0,7.0,69,0.00,,CLR,0.00,VWS V15.00,2017-02-20 08:24:00,
2017-02-20 03:25:00,39.6,29.9,30.10,NW,321,5.0,7.0,68,0.00,,CLR,0.00,VWS V15.00,2017-02-20 08:25:00,
2017-02-20 03:26:00,39.7,30.0,30.10,NW,310,7.0,7.0,68,0.00,,CLR,0.00,VWS V15.00,2017-02-20 08:26:00,
2017-02-20 03:27:00,39.7,30.0,30.10,NW,323,6.0,7.0,68,0.00,,CLR,0.00,VWS V15.00,2017-02-20 08:27:00,
2017-02-20 03:28:00,39.7,30.0,30.10,NW,315,3.0,7.0,68,0.00,,CLR,0.00,VWS V15.00,2017-02-20 08:28:00,
2017-02-20 03:29:00,39.8,30.1,30.10,North,355,4.0,7.0,68,0.00,,CLR,0.00,VWS V15.00,2017-02-20 08:29:00,
2017-02-20 03:30:00,39.8,30.1,30.10,NNW,332,5.0,7.0,68,0.00,,CLR,0.00,VWS V15.00,2017-02-20 08:30:00,
2017-02-20 03:31:00,39.8,30.1,30.10,NNW,339,6.0,7.0,68,0.00,,CLR,0.00,VWS V15.00,2017-02-20 08:31:00,
2017-02-20 03:32:00,39.9,30.2,30.10,NW,322,4.0,7.0,68,0.00,,CLR,0.00,VWS V15.00,2017-02-20 08:32:00,
2017-02-20 03:33:00,40.0,30.3,30.10,NNW,336,4.0,7.0,68,0.00,,CLR,0.00,VWS V15.00,2017-02-20 08:33:00,
2017-02-20 03:34:00,40.0,30.3,30.10,NNW,337,5.0,7.0,68,0.00,,CLR,0.00,VWS V15.00,2017-02-20 08:34:00,
2017-02-20 03:35:00,40.0,30.3,30.10,NNW,327,4.0,7.0,68,0.00,,CLR,0.00,VWS V15.00,2017-02-20 08:35:00,
2017-02-20 03:36:00,31.5,29.2,29.95,SW,228,0.0,0.0,91,0.00,,,0.00,VWS V15.00,2017-02-20 08:36:00,
2017-02-20 03:37:00,40.1,30.4,30.11,NNW,343,5.0,7.0,68,0.00,,CLR,0.00,VWS V15.00,2017-02-20 08:37:00,
2017-02-20 03:38:00,40.1,30.4,30.11,NW,323,2.0,7.0,68,0.00,,CLR,0.00,VWS V15.00,2017-02-20 08:38:00,
2017-02-20 03:39:00,40.1,30.0,30.10,NNW,337,6.0,7.0,67,0.00,,CLR,0.00,VWS V15.00,2017-02-20 08:39:00,
2017-02-20 03:40:00,40.2,30.1,30.10,NW,313,4.0,8.0,67,0.00,,CLR,0.00,VWS V15.00,2017-02-20 08:40:00,
2017-02-20 03:41:00,40.2,30.1,30.10,NNW,340,4.0,8.0,67,0.00,,CLR,0.00,VWS V15.00,2017-02-20 08:41:00,
2017-02-20 03:42:00,40.3,29.9,30.11,NW,320,3.0,8.0,66,0.00,,CLR,0.00,VWS V15.00,2017-02-20 08:42:00,
2017-02-20 03:43:00,40.3,29.9,30.11,NW,319,2.0,8.0,66,0.00,,CLR,0.00,VWS V15.00,2017-02-20 08:43:00,
2017-02-20 03:44:00,40.4,30.0,30.11,NNW,338,5.0,8.0,66,0.00,,CLR,0.00,VWS V15.00,2017-02-20 08:44:00,
2017-02-20 03:45:00,40.4,30.0,30.11,NW,315,4.0,8.0,66,0.00,,CLR,0.00,VWS V15.00,2017-02-20 08:45:00,
2017-02-20 03:46:00,40.4,30.0,30.11,NNW,346,3.0,8.0,66,0.00,,CLR,0.00,VWS V15.00,2017-02-20 08:46:00,
2017-02-20 03:47:00,40.4,30.0,30.11,NNW,331,4.0,8.0,66,0.00,,CLR,0.00,VWS V15.00,2017-02-20 08:47:00,
2017-02-20 03:48:00,40.4,30.0,30.11,North,350,6.0,8.0,66,0.00,,CLR,0.00,VWS V15.00,2017-02-20 08:48:00,
2017-02-20 03:49:00,40.5,30.0,30.11,North,360,5.0,8.0,66,0.00,,CLR,0.00,VWS V15.00,2017-02-20 08:49:00,
2017-02-20 03:50:00,40.5,29.7,30.11,NNW,329,5.0,8.0,65,0.00,,CLR,0.00,VWS V15.00,2017-02-20 08:50:00,
2017-02-20 03:51:00,40.5,29.7,30.11,NW,314,3.0,8.0,65,0.00,,CLR,0.00,VWS V15.00,2017-02-20 08:51:00,
2017-02-20 03:52:00,40.5,29.7,30.11,NNW,348,6.0,8.0,65,0.00,,CLR,0.00,VWS V15.00,2017-02-20 08:52:00,
2017-02-20 03:53:00,40.6,29.4,30.11,NW,319,5.0,8.0,64,0.00,,CLR,0.00,VWS V15.00,2017-02-20 08:53:00,
2017-02-20 03:54:00,40.6,29.8,30.11,NW,322,4.0,8.0,65,0.00,,CLR,0.00,VWS V15.00,2017-02-20 08:54:00,
2017-02-20 03:55:00,40.6,29.8,30.11,NNW,329,6.0,9.0,65,0.00,,CLR,0.00,VWS V15.00,2017-02-20 08:55:00,
2017-02-20 03:56:00,40.6,29.4,30.11,NNW,327,7.0,9.0,64,0.00,,CLR,0.00,VWS V15.00,2017-02-20 08:56:00,
2017-02-20 03:57:00,40.6,29.4,30.11,NNW,344,6.0,9.0,64,0.00,,CLR,0.00,VWS V15.00,2017-02-20 08:57:00,
2017-02-20 03:58:00,40.6,29.0,30.11,NNW,329,6.0,9.0,63,0.00,,CLR,0.00,VWS V15.00,2017-02-20 08:58:00,
2017-02-20 03:59:00,40.6,29.0,30.11,NW,318,5.0,9.0,63,0.00,,CLR,0.00,VWS V15.00,2017-02-20 08:59:00,
2017-02-20 04:00:00,40.6,29.0,30.11,NW,313,4.0,9.0,63,0.00,,CLR,0.00,VWS V15.00,2017-02-20 09:00:00,
2017-02-20 04:01:00,40.7,29.1,30.11,NW,319,4.0,8.0,63,0.00,,CLR,0.00,VWS V15.00,2017-02-20 09:01:00,
2017-02-20 04:02:00,40.7,29.1,30.11,NW,315,5.0,8.0,63,0.00,,CLR,0.00,VWS V15.00,2017-02-20 09:02:00,
2017-02-20 04:03:00,40.7,29.1,30.11,NW,313,4.0,8.0,63,0.00,,CLR,0.00,VWS V15.00,2017-02-20 09:03:00,
2017-02-20 04:04:00,40.7,29.1,30.11,NW,320,7.0,8.0,63,0.00,,CLR,0.00,VWS V15.00,2017-02-20 09:04:00,
2017-02-20 04:05:00,40.7,29.1,30.11,NW,311,8.0,8.0,63,0.00,,CLR,0.00,VWS V15.00,2017-02-20 09:05:00,
2017-02-20 04:06:00,40.7,29.1,30.11,NNW,334,5.0,8.0,63,0.00,,CLR,0.00,VWS V15.00,2017-02-20 09:06:00,
2017-02-20 04:07:00,40.7,29.1,30.11,NNW,327,5.0,8.0,63,0.00,,CLR,0.00,VWS V15.00,2017-02-20 09:07:00,
2017-02-20 04:08:00,40.7,29.1,30.11,NW,324,4.0,8.0,63,0.00,,CLR,0.00,VWS V15.00,2017-02-20 09:08:00,
2017-02-20 04:09:00,40.7,29.1,30.11,NW,320,6.0,8.0,63,0.00,,CLR,0.00,VWS V15.00,2017-02-20 09:09:00,
2017-02-20 04:10:00,40.7,29.1,30.11,NW,319,5.0,8.0,63,0.00,,CLR,0.00,VWS V15.00,2017-02-20 09:10:00,
2017-02-20 04:11:00,40.7,29.1,30.11,NW,319,5.0,8.0,63,0.00,,CLR,0.00,VWS V15.00,2017-02-20 09:11:00,
2017-02-20 04:12:00,40.7,29.1,30.11,NW,305,8.0,8.0,63,0.00,,CLR,0.00,VWS V15.00,2017-02-20 09:12:00,
2017-02-20 04:13:00,40.7,29.1,30.11,NW,311,5.0,9.0,63,0.00,,CLR,0.00,VWS V15.00,2017-02-20 09:13:00,
2017-02-20 04:14:00,40.7,29.1,30.11,NW,309,6.0,9.0,63,0.00,,CLR,0.00,VWS V15.00,2017-02-20 09:14:00,
2017-02-20 04:15:00,40.7,29.1,30.11,NW,309,6.0,9.0,63,0.00,,CLR,0.00,VWS V15.00,2017-02-20 09:15:00,
2017-02-20 04:16:00,40.7,29.1,30.11,NNW,328,4.0,9.0,63,0.00,,CLR,0.00,VWS V15.00,2017-02-20 09:16:00,
2017-02-20 04:17:00,40.7,29.1,30.11,NW,322,6.0,9.0,63,0.00,,CLR,0.00,VWS V15.00,2017-02-20 09:17:00,
2017-02-20 04:18:00,40.8,29.2,30.11,NW,313,5.0,9.0,63,0.00,,CLR,0.00,VWS V15.00,2017-02-20 09:18:00,
2017-02-20 04:19:00,40.8,29.2,30.11,NNW,328,6.0,9.0,63,0.00,,CLR,0.00,VWS V15.00,2017-02-20 09:19:00,
2017-02-20 04:20:00,40.8,28.8,30.11,NNW,346,8.0,9.0,62,0.00,,CLR,0.00,VWS V15.00,2017-02-20 09:20:00,
2017-02-20 04:21:00,40.8,28.8,30.11,NW,325,9.0,9.0,62,0.00,,CLR,0.00,VWS V15.00,2017-02-20 09:21:00,
2017-02-20 04:22:00,40.9,28.9,30.11,NNW,327,5.0,9.0,62,0.00,,CLR,0.00,VWS V15.00,2017-02-20 09:22:00,
2017-02-20 04:23:00,40.9,28.9,30.11,NW,325,5.0,9.0,62,0.00,,CLR,0.00,VWS V15.00,2017-02-20 09:23:00,
2017-02-20 04:24:00,40.9,28.9,30.11,NW,323,6.0,9.0,62,0.00,,CLR,0.00,VWS V15.00,2017-02-20 09:24:00,
2017-02-20 04:25:00,40.9,28.9,30.11,NW,325,7.0,9.0,62,0.00,,CLR,0.00,VWS V15.00,2017-02-20 09:25:00,
2017-02-20 04:26:00,40.9,28.9,30.11,NNW,336,8.0,9.0,62,0.00,,CLR,0.00,VWS V15.00,2017-02-20 09:26:00,
2017-02-20 04:27:00,40.9,28.5,30.11,NNW,333,5.0,9.0,61,0.00,,CLR,0.00,VWS V15.00,2017-02-20 09:27:00,
2017-02-20 04:28:00,40.9,28.9,30.11,NW,320,7.0,10.0,62,0.00,,CLR,0.00,VWS V15.00,2017-02-20 09:28:00,
2017-02-20 04:29:00,40.9,28.5,30.11,NW,315,6.0,10.0,61,0.00,,CLR,0.00,VWS V15.00,2017-02-20 09:29:00,
2017-02-20 04:30:00,40.9,28.9,30.11,NW,326,3.0,10.0,62,0.00,,CLR,0.00,VWS V15.00,2017-02-20 09:30:00,
2017-02-20 04:31:00,40.9,28.9,30.11,NW,311,5.0,6.0,62,0.00,,CLR,0.00,VWS V15.00,2017-02-20 09:31:00,
2017-02-20 04:32:00,40.9,28.9,30.11,NW,325,6.0,6.0,62,0.00,,CLR,0.00,VWS V15.00,2017-02-20 09:32:00,
2017-02-20 04:33:00,40.9,29.3,30.11,NW,323,8.0,8.0,63,0.00,,CLR,0.00,VWS V15.00,2017-02-20 09:33:00,
2017-02-20 04:34:00,40.9,28.9,30.11,NNW,331,6.0,8.0,62,0.00,,CLR,0.00,VWS V15.00,2017-02-20 09:34:00,
2017-02-20 04:35:00,40.9,28.9,30.11,NW,319,6.0,8.0,62,0.00,,CLR,0.00,VWS V15.00,2017-02-20 09:35:00,
2017-02-20 04:36:00,40.9,28.9,30.11,NNW,329,3.0,8.0,62,0.00,,CLR,0.00,VWS V15.00,2017-02-20 09:36:00,
2017-02-20 04:37:00,41.0,29.0,30.11,NW,315,8.0,8.0,62,0.00,,CLR,0.00,VWS V15.00,2017-02-20 09:37:00,
2017-02-20 04:38:00,40.9,28.9,30.11,NNW,344,7.0,8.0,62,0.00,,CLR,0.00,VWS V15.00,2017-02-20 09:38:00,
2017-02-20 04:39:00,40.9,28.9,30.11,NNW,340,4.0,8.0,62,0.00,,CLR,0.00,VWS V15.00,2017-02-20 09:39:00,
2017-02-20 04:40:00,40.9,28.5,30.11,NNW,338,5.0,8.0,61,0.00,,CLR,0.00,VWS V15.00,2017-02-20 09:40:00,
2017-02-20 04:41:00,40.9,28.9,30.11,NNW,333,6.0,8.0,62,0.00,,FEW041,0.00,VWS V15.00,2017-02-20 09:41:00,
2017-02-20 04:42:00,40.9,28.9,30.11,NW,309,5.0,8.0,62,0.00,,FEW041,0.00,VWS V15.00,2017-02-20 09:42:00,
2017-02-20 04:43:00,40.9,28.9,30.11,NW,309,7.0,8.0,62,0.00,,FEW041,0.00,VWS V15.00,2017-02-20 09:43:00,
2017-02-20 04:44:00,41.0,28.6,30.11,NNW,340,6.0,8.0,61,0.00,,FEW041,0.00,VWS V15.00,2017-02-20 09:44:00,
2017-02-20 04:45:00,41.0,29.0,30.11,North,355,9.0,9.0,62,0.00,,FEW041,0.00,VWS V15.00,2017-02-20 09:45:00,
2017-02-20 04:46:00,41.1,29.1,30.11,NW,309,6.0,9.0,62,0.00,,FEW041,0.00,VWS V15.00,2017-02-20 09:46:00,
2017-02-20 04:47:00,41.1,28.7,30.11,NW,315,6.0,9.0,61,0.00,,FEW041,0.00,VWS V15.00,2017-02-20 09:47:00,
2017-02-20 04:48:00,41.1,28.7,30.11,NW,315,4.0,9.0,61,0.00,,FEW041,0.00,VWS V15.00,2017-02-20 09:48:00,
2017-02-20 04:49:00,41.1,28.7,30.11,NNW,337,3.0,9.0,61,0.00,,FEW041,0.00,VWS V15.00,2017-02-20 09:49:00,
2017-02-20 04:50:00,41.1,29.1,30.11,NNW,348,3.0,9.0,62,0.00,,FEW041,0.00,VWS V15.00,2017-02-20 09:50:00,
2017-02-20 04:51:00,41.1,29.1,30.11,NW,320,5.0,9.0,62,0.00,,FEW041,0.00,VWS V15.00,2017-02-20 09:51:00,
2017-02-20 04:52:00,41.2,29.6,30.11,NW,317,4.0,9.0,63,0.00,,FEW041,0.00,VWS V15.00,2017-02-20 09:52:00,
2017-02-20 04:53:00,41.2,29.2,30.11,NW,306,6.0,9.0,62,0.00,,FEW041,0.00,VWS V15.00,2017-02-20 09:53:00,
2017-02-20 04:54:00,41.2,29.2,30.11,NW,317,5.0,9.0,62,0.00,,FEW041,0.00,VWS V15.00,2017-02-20 09:54:00,
2017-02-20 04:55:00,41.2,29.2,30.10,NNW,327,5.0,9.0,62,0.00,,FEW041,0.00,VWS V15.00,2017-02-20 09:55:00,
2017-02-20 04:56:00,41.2,29.2,30.11,NW,313,5.0,9.0,62,0.00,,FEW041,0.00,VWS V15.00,2017-02-20 09:56:00,
2017-02-20 04:57:00,41.2,28.8,30.11,NNW,328,5.0,9.0,61,0.00,,FEW041,0.00,VWS V15.00,2017-02-20 09:57:00,
2017-02-20 04:58:00,41.2,28.8,30.11,NNW,339,6.0,9.0,61,0.00,,FEW041,0.00,VWS V15.00,2017-02-20 09:58:00,
2017-02-20 04:59:00,41.2,28.8,30.10,NW,319,5.0,9.0,61,0.00,,FEW041,0.00,VWS V15.00,2017-02-20 09:59:00,
2017-02-20 05:00:00,41.2,29.2,30.11,NW,311,4.0,9.0,62,0.00,,FEW041,0.00,VWS V15.00,2017-02-20 10:00:00,
2017-02-20 05:01:00,41.2,29.2,30.11,NNW,333,3.0,8.0,62,0.00,,FEW041,0.00,VWS V15.00,2017-02-20 10:01:00,
2017-02-20 05:02:00,41.3,29.3,30.11,NW,322,4.0,8.0,62,0.00,,FEW041,0.00,VWS V15.00,2017-02-20 10:02:00,
2017-02-20 05:03:00,41.2,29.2,30.11,NNW,335,4.0,8.0,62,0.00,,FEW041,0.00,VWS V15.00,2017-02-20 10:03:00,
2017-02-20 05:04:00,41.2,29.2,30.10,NNW,329,3.0,8.0,62,0.00,,FEW041,0.00,VWS V15.00,2017-02-20 10:04:00,
2017-02-20 05:05:00,41.2,29.2,30.11,WNW,289,6.0,8.0,62,0.00,,FEW041,0.00,VWS V15.00,2017-02-20 10:05:00,
2017-02-20 05:06:00,41.3,29.3,30.11,NW,312,7.0,8.0,62,0.00,,FEW041,0.00,VWS V15.00,2017-02-20 10:06:00,
2017-02-20 05:07:00,41.3,28.9,30.11,NNW,331,7.0,9.0,61,0.00,,FEW041,0.00,VWS V15.00,2017-02-20 10:07:00,
2017-02-20 05:08:00,41.2,28.8,30.11,North,355,7.0,12.0,61,0.00,,FEW041,0.00,VWS V15.00,2017-02-20 10:08:00,
2017-02-20 05:09:00,41.2,28.8,30.11,NNW,329,5.0,12.0,61,0.00,,FEW041,0.00,VWS V15.00,2017-02-20 10:09:00,
2017-02-20 05:10:00,41.1,28.7,30.11,NW,318,7.0,12.0,61,0.00,,FEW041,0.00,VWS V15.00,2017-02-20 10:10:00,
2017-02-20 05:11:00,41.1,28.7,30.11,NW,319,7.0,12.0,61,0.00,,FEW041,0.00,VWS V15.00,2017-02-20 10:11:00,
2017-02-20 05:12:00,41.1,28.7,30.11,NW,318,5.0,12.0,61,0.00,,FEW041,0.00,VWS V15.00,2017-02-20 10:12:00,
2017-02-20 05:13:00,41.2,28.8,30.11,NW,312,6.0,12.0,61,0.00,,FEW041,0.00,VWS V15.00,2017-02-20 10:13:00,
2017-02-20 05:14:00,41.2,28.8,30.11,NW,319,5.0,12.0,61,0.00,,FEW041,0.00,VWS V15.00,2017-02-20 10:14:00,
2017-02-20 05:15:00,41.2,28.8,30.11,NNW,331,6.0,12.0,61,0.00,,FEW041,0.00,VWS V15.00,2017-02-20 10:15:00,
2017-02-20 05:16:00,41.2,28.8,30.11,NNW,333,5.0,12.0,61,0.00,,FEW041,0.00,VWS V15.00,2017-02-20 10:16:00,
2017-02-20 05:17:00,41.2,28.8,30.11,NW,314,6.0,12.0,61,0.00,,FEW041,0.00,VWS V15.00,2017-02-20 10:17:00,
2017-02-20 05:18:00,41.2,28.8,30.11,NNW,347,7.0,12.0,61,0.00,,FEW041,0.00,VWS V15.00,2017-02-20 10:18:00,
2017-02-20 05:19:00,41.2,28.4,30.11,NW,306,6.0,12.0,60,0.00,,FEW041,0.00,VWS V15.00,2017-02-20 10:19:00,
2017-02-20 05:20:00,41.2,28.4,30.11,WNW,298,5.0,12.0,60,0.00,,FEW041,0.00,VWS V15.00,2017-02-20 10:20:00,
2017-02-20 05:21:00,41.3,28.9,30.11,NW,305,3.0,12.0,61,0.00,,CLR,0.00,VWS V15.00,2017-02-20 10:21:00,
2017-02-20 05:22:00,41.3,28.5,30.11,NW,314,4.0,12.0,60,0.00,,CLR,0.00,VWS V15.00,2017-02-20 10:22:00,
2017-02-20 05:23:00,41.4,28.6,30.11,NW,321,6.0,12.0,60,0.00,,CLR,0.00,VWS V15.00,2017-02-20 10:23:00,
2017-02-20 05:24:00,41.4,28.6,30.11,NW,321,3.0,12.0,60,0.00,,CLR,0.00,VWS V15.00,2017-02-20 10:24:00,
2017-02-20 05:25:00,41.5,28.7,30.11,WNW,302,5.0,12.0,60,0.00,,CLR,0.00,VWS V15.00,2017-02-20 10:25:00,
2017-02-20 05:26:00,41.6,29.2,30.11,WNW,301,5.0,12.0,61,0.00,,CLR,0.00,VWS V15.00,2017-02-20 10:26:00,
2017-02-20 05:27:00,41.6,29.2,30.11,NW,315,5.0,12.0,61,0.00,,CLR,0.00,VWS V15.00,2017-02-20 10:27:00,
2017-02-20 05:28:00,41.7,28.9,30.11,WNW,303,7.0,12.0,60,0.00,,CLR,0.00,VWS V15.00,2017-02-20 10:28:00,
2017-02-20 05:29:00,41.8,29.0,30.12,NW,323,5.0,12.0,60,0.00,,CLR,0.00,VWS V15.00,2017-02-20 10:29:00,
2017-02-20 05:30:00,41.8,29.0,30.12,NNW,339,7.0,12.0,60,0.00,,CLR,0.00,VWS V15.00,2017-02-20 10:30:00,
2017-02-20 05:31:00,41.8,28.5,30.12,NNW,335,4.0,7.0,59,0.00,,CLR,0.00,VWS V15.00,2017-02-20 10:31:00,
2017-02-20 05:32:00,41.8,29.0,30.12,NNW,335,7.0,7.0,60,0.00,,CLR,0.00,VWS V15.00,2017-02-20 10:32:00,
2017-02-20 05:33:00,41.8,29.0,30.12,NNW,333,7.0,11.0,60,0.00,,CLR,0.00,VWS V15.00,2017-02-20 10:33:00,
2017-02-20 05:34:00,41.8,29.0,30.12,NW,309,7.0,11.0,60,0.00,,CLR,0.00,VWS V15.00,2017-02-20 10:34:00,
2017-02-20 05:35:00,41.8,29.0,30.12,NNW,346,3.0,11.0,60,0.00,,CLR,0.00,VWS V15.00,2017-02-20 10:35:00,
2017-02-20 05:36:00,41.7,28.9,30.12,NW,315,4.0,11.0,60,0.00,,CLR,0.00,VWS V15.00,2017-02-20 10:36:00,
2017-02-20 05:37:00,41.7,29.3,30.12,NNW,332,8.0,11.0,61,0.00,,CLR,0.00,VWS V15.00,2017-02-20 10:37:00,
2017-02-20 05:38:00,41.8,29.0,30.12,NNW,342,8.0,11.0,60,0.00,,CLR,0.00,VWS V15.00,2017-02-20 10:38:00,
2017-02-20 05:39:00,41.7,28.9,30.12,NNW,339,4.0,11.0,60,0.00,,CLR,0.00,VWS V15.00,2017-02-20 10:39:00,
2017-02-20 05:40:00,41.7,28.9,30.12,NNW,341,6.0,11.0,60,0.00,,CLR,0.00,VWS V15.00,2017-02-20 10:40:00,
2017-02-20 05:41:00,41.7,28.9,30.12,NNW,329,3.0,11.0,60,0.00,,CLR,0.00,VWS V15.00,2017-02-20 10:41:00,
2017-02-20 05:42:00,41.7,28.9,30.12,NW,307,5.0,11.0,60,0.00,,CLR,0.00,VWS V15.00,2017-02-20 10:42:00,
2017-02-20 05:43:00,41.7,28.9,30.12,NNW,348,6.0,11.0,60,0.00,,CLR,0.00,VWS V15.00,2017-02-20 10:43:00,
2017-02-20 05:44:00,41.7,28.9,30.12,NNW,332,8.0,11.0,60,0.00,,CLR,0.00,VWS V15.00,2017-02-20 10:44:00,
2017-02-20 05:45:00,41.8,29.0,30.12,NNW,337,5.0,11.0,60,0.00,,CLR,0.00,VWS V15.00,2017-02-20 10:45:00,
2017-02-20 05:46:00,41.7,28.9,30.11,NNW,331,6.0,11.0,60,0.00,,CLR,0.00,VWS V15.00,2017-02-20 10:46:00,
2017-02-20 05:47:00,41.7,28.9,30.11,NW,320,4.0,11.0,60,0.00,,CLR,0.00,VWS V15.00,2017-02-20 10:47:00,
2017-02-20 05:48:00,41.7,28.9,30.11,NW,315,6.0,11.0,60,0.00,,CLR,0.00,VWS V15.00,2017-02-20 10:48:00,
2017-02-20 05:49:00,41.7,28.9,30.11,NW,324,6.0,11.0,60,0.00,,CLR,0.00,VWS V15.00,2017-02-20 10:49:00,
2017-02-20 05:50:00,41.7,29.3,30.11,NW,311,6.0,11.0,61,0.00,,CLR,0.00,VWS V15.00,2017-02-20 10:50:00,
2017-02-20 05:51:00,41.8,29.0,30.11,NW,324,4.0,11.0,60,0.00,,CLR,0.00,VWS V15.00,2017-02-20 10:51:00,
2017-02-20 05:52:00,41.8,29.0,30.11,NW,313,5.0,11.0,60,0.00,,CLR,0.00,VWS V15.00,2017-02-20 10:52:00,
2017-02-20 05:53:00,41.8,29.4,30.11,NNW,327,3.0,11.0,61,0.00,,CLR,0.00,VWS V15.00,2017-02-20 10:53:00,
2017-02-20 05:54:00,41.8,29.0,30.11,NNW,342,2.0,11.0,60,0.00,,CLR,0.00,VWS V15.00,2017-02-20 10:54:00,
2017-02-20 05:55:00,41.8,29.0,30.10,NNW,333,2.0,11.0,60,0.00,,CLR,0.00,VWS V15.00,2017-02-20 10:55:00,
2017-02-20 05:56:00,41.9,29.5,30.11,WNW,282,4.0,11.0,61,0.00,,CLR,0.00,VWS V15.00,2017-02-20 10:56:00,
2017-02-20 05:57:00,41.9,29.5,30.11,NW,317,1.0,11.0,61,0.00,,CLR,0.00,VWS V15.00,2017-02-20 10:57:00,
2017-02-20 05:58:00,41.9,29.0,30.11,NW,316,0.0,11.0,60,0.00,,CLR,0.00,VWS V15.00,2017-02-20 10:58:00,
2017-02-20 05:59:00,42.0,29.1,30.11,North,349,5.0,11.0,60,0.00,,CLR,0.00,VWS V15.00,2017-02-20 10:59:00,
2017-02-20 06:00:00,42.0,29.1,30.10,NW,312,8.0,11.0,60,0.00,,CLR,0.00,VWS V15.00,2017-02-20 11:00:00,
2017-02-20 06:01:00,42.0,29.1,30.10,NNW,338,6.0,8.0,60,0.00,,BKN039,0.00,VWS V15.00,2017-02-20 11:01:00,
2017-02-20 06:02:00,42.1,29.2,30.11,NW,311,7.0,8.0,60,0.00,,BKN039,0.00,VWS V15.00,2017-02-20 11:02:00,
2017-02-20 06:03:00,42.1,29.2,30.11,NNW,331,4.0,8.0,60,0.00,,BKN039,0.00,VWS V15.00,2017-02-20 11:03:00,
2017-02-20 06:04:00,42.1,29.6,30.11,NNW,348,7.0,8.0,61,0.00,,BKN039,0.00,VWS V15.00,2017-02-20 11:04:00,
2017-02-20 06:05:00,42.0,29.1,30.11,NNW,346,4.0,8.0,60,0.00,,BKN039,0.00,VWS V15.00,2017-02-20 11:05:00,
2017-02-20 06:06:00,41.9,29.5,30.11,North,360,5.0,8.0,61,0.00,,BKN039,0.00,VWS V15.00,2017-02-20 11:06:00,
2017-02-20 06:07:00,41.9,29.5,30.11,NNW,344,5.0,9.0,61,0.00,,BKN039,0.00,VWS V15.00,2017-02-20 11:07:00,
2017-02-20 06:08:00,41.8,29.4,30.11,NNW,341,4.0,9.0,61,0.00,,BKN039,0.00,VWS V15.00,2017-02-20 11:08:00,
2017-02-20 06:09:00,41.8,29.8,30.10,NNW,346,2.0,9.0,62,0.00,,BKN039,0.00,VWS V15.00,2017-02-20 11:09:00,
2017-02-20 06:10:00,41.8,29.8,30.11,NW,325,4.0,9.0,62,0.00,,BKN039,0.00,VWS V15.00,2017-02-20 11:10:00,
2017-02-20 06:11:00,41.8,30.1,30.11,NW,309,4.0,9.0,63,0.00,,BKN039,0.00,VWS V15.00,2017-02-20 11:11:00,
2017-02-20 06:12:00,41.8,30.1,30.11,NW,317,3.0,9.0,63,0.00,,BKN039,0.00,VWS V15.00,2017-02-20 11:12:00,
2017-02-20 06:13:00,41.8,29.8,30.11,WNW,292,4.0,9.0,62,0.00,,BKN039,0.00,VWS V15.00,2017-02-20 11:13:00,
2017-02-20 06:14:00,41.9,29.9,30.11,NW,315,6.0,9.0,62,0.00,,BKN039,0.00,VWS V15.00,2017-02-20 11:14:00,
2017-02-20 06:15:00,41.9,29.5,30.11,NW,310,4.0,9.0,61,0.00,,BKN039,0.00,VWS V15.00,2017-02-20 11:15:00,
2017-02-20 06:16:00,42.0,29.5,30.11,NNW,329,5.0,9.0,61,0.00,,BKN039,0.00,VWS V15.00,2017-02-20 11:16:00,
2017-02-20 06:17:00,42.0,29.9,30.11,NW,311,8.0,9.0,62,0.00,,BKN039,0.00,VWS V15.00,2017-02-20 11:17:00,
2017-02-20 06:18:00,42.1,30.4,30.12,North,355,9.0,9.0,63,0.00,,BKN039,0.00,VWS V15.00,2017-02-20 11:18:00,
2017-02-20 06:19:00,42.2,30.5,30.12,NW,317,5.0,9.0,63,0.00,,BKN039,0.00,VWS V15.00,2017-02-20 11:19:00,
2017-02-20 06:20:00,42.2,30.5,30.12,WNW,303,5.0,9.0,63,0.00,,BKN039,0.00,VWS V15.00,2017-02-20 11:20:00,
2017-02-20 06:21:00,42.2,30.1,30.12,NW,317,5.0,9.0,62,0.00,,BKN039,0.00,VWS V15.00,2017-02-20 11:21:00,
2017-02-20 06:22:00,42.2,30.1,30.12,NW,325,5.0,9.0,62,0.00,,BKN039,0.00,VWS V15.00,2017-02-20 11:22:00,
2017-02-20 06:23:00,42.1,30.0,30.12,WNW,303,5.0,9.0,62,0.00,,BKN039,0.00,VWS V15.00,2017-02-20 11:23:00,
2017-02-20 06:24:00,42.1,30.0,30.12,NW,324,4.0,9.0,62,0.00,,BKN039,0.00,VWS V15.00,2017-02-20 11:24:00,
2017-02-20 06:25:00,42.1,30.0,30.11,WNW,300,5.0,9.0,62,0.00,,BKN039,0.00,VWS V15.00,2017-02-20 11:25:00,
2017-02-20 06:26:00,42.0,29.9,30.11,NW,322,6.0,9.0,62,0.00,,BKN039,0.00,VWS V15.00,2017-02-20 11:26:00,
2017-02-20 06:27:00,42.0,29.9,30.11,NNW,336,5.0,9.0,62,0.00,,BKN039,0.00,VWS V15.00,2017-02-20 11:27:00,
2017-02-20 06:28:00,41.9,29.9,30.11,NW,323,6.0,9.0,62,0.00,,BKN039,0.00,VWS V15.00,2017-02-20 11:28:00,
2017-02-20 06:29:00,41.8,29.8,30.11,NW,322,7.0,9.0,62,0.00,,BKN039,0.00,VWS V15.00,2017-02-20 11:29:00,
2017-02-20 06:30:00,41.7,30.0,30.11,NW,309,4.0,9.0,63,0.00,,BKN039,0.00,VWS V15.00,2017-02-20 11:30:00,
2017-02-20 06:31:00,41.7,30.0,30.11,NW,324,6.0,7.0,63,0.00,,BKN039,0.00,VWS V15.00,2017-02-20 11:31:00,
2017-02-20 06:32:00,41.7,30.0,30.11,NNW,348,8.0,8.0,63,0.00,,BKN039,0.00,VWS V15.00,2017-02-20 11:32:00,
2017-02-20 06:33:00,41.6,30.0,30.11,North,355,5.0,8.0,63,0.00,,BKN039,0.00,VWS V15.00,2017-02-20 11:33:00,
2017-02-20 06:34:00,41.6,30.0,30.11,NW,325,5.0,8.0,63,0.00,,BKN039,0.00,VWS V15.00,2017-02-20 11:34:00,
2017-02-20 06:35:00,41.6,30.0,30.11,NW,321,4.0,8.0,63,0.00,,BKN039,0.00,VWS V15.00,2017-02-20 11:35:00,
2017-02-20 06:36:00,41.6,30.3,30.11,NNW,344,3.0,8.0,64,0.00,,BKN039,0.00,VWS V15.00,2017-02-20 11:36:00,
2017-02-20 06:37:00,41.7,30.4,30.11,North,350,8.0,8.0,64,0.00,,BKN039,0.00,VWS V15.00,2017-02-20 11:37:00,
2017-02-20 06:38:00,41.8,30.5,30.11,North,351,10.0,13.0,64,0.00,,BKN039,0.00,VWS V15.00,2017-02-20 11:38:00,
2017-02-20 06:39:00,41.8,30.5,30.11,NNW,347,5.0,13.0,64,0.00,,BKN039,0.00,VWS V15.00,2017-02-20 11:39:00,
2017-02-20 06:40:00,41.7,30.8,30.11,NE,38,7.0,13.0,65,0.00,,BKN039,0.00,VWS V15.00,2017-02-20 11:40:00,
2017-02-20 06:41:00,41.7,30.8,30.11,NNW,344,8.0,13.0,65,0.00,,BKN042,0.00,VWS V15.00,2017-02-20 11:41:00,
2017-02-20 06:42:00,41.6,30.7,30.11,North,360,7.0,13.0,65,0.00,,BKN042,0.00,VWS V15.00,2017-02-20 11:42:00,
2017-02-20 06:43:00,41.6,30.3,30.11,North,5,4.0,13.0,64,0.00,,BKN042,0.00,VWS V15.00,2017-02-20 11:43:00,
2017-02-20 06:44:00,41.5,30.6,30.11,NNW,346,2.0,13.0,65,0.00,,BKN042,0.00,VWS V15.00,2017-02-20 11:44:00,
2017-02-20 06:45:00,41.4,30.1,30.11,NNW,334,4.0,13.0,64,0.00,,BKN042,0.00,VWS V15.00,2017-02-20 11:45:00,
2017-02-20 06:46:00,41.4,30.5,30.11,NW,321,5.0,13.0,65,0.00,,BKN042,0.00,VWS V15.00,2017-02-20 11:46:00,
2017-02-20 06:47:00,41.4,30.9,30.11,NNW,342,3.0,13.0,66,0.00,,BKN042,0.00,VWS V15.00,2017-02-20 11:47:00,
2017-02-20 06:48:00,41.5,31.0,30.11,NNW,341,4.0,13.0,66,0.00,,BKN042,0.00,VWS V15.00,2017-02-20 11:48:00,
2017-02-20 06:49:00,41.5,31.0,30.11,North,360,7.0,13.0,66,0.00,,BKN042,0.00,VWS V15.00,2017-02-20 11:49:00,
2017-02-20 06:50:00,41.5,31.0,30.11,NNW,348,9.0,13.0,66,0.00,,BKN042,0.00,VWS V15.00,2017-02-20 11:50:00,
2017-02-20 06:51:00,41.5,31.0,30.11,NNW,346,5.0,13.0,66,0.00,,BKN042,0.00,VWS V15.00,2017-02-20 11:51:00,
2017-02-20 06:52:00,41.5,31.0,30.11,NNW,331,5.0,13.0,66,0.00,,BKN042,0.00,VWS V15.00,2017-02-20 11:52:00,
2017-02-20 06:53:00,41.5,31.0,30.11,NW,325,4.0,13.0,66,0.00,,BKN042,0.00,VWS V15.00,2017-02-20 11:53:00,
2017-02-20 06:54:00,41.6,31.5,30.11,NW,315,6.0,13.0,67,0.00,,BKN042,0.00,VWS V15.00,2017-02-20 11:54:00,
2017-02-20 06:55:00,41.6,31.5,30.11,NNW,334,7.0,13.0,67,0.00,,BKN042,0.00,VWS V15.00,2017-02-20 11:55:00,
2017-02-20 06:56:00,41.6,31.1,30.11,NW,323,7.0,13.0,66,0.00,,BKN042,0.00,VWS V15.00,2017-02-20 11:56:00,
2017-02-20 06:57:00,41.6,31.1,30.11,NW,325,5.0,13.0,66,0.00,,BKN042,0.00,VWS V15.00,2017-02-20 11:57:00,
2017-02-20 06:58:00,41.6,31.1,30.11,North,355,3.0,13.0,66,0.00,,BKN042,0.00,VWS V15.00,2017-02-20 11:58:00,
2017-02-20 06:59:00,41.7,31.6,30.11,NNW,346,4.0,13.0,67,0.00,,BKN042,0.00,VWS V15.00,2017-02-20 11:59:00,
2017-02-20 07:00:00,41.7,31.6,30.11,NNW,327,9.0,13.0,67,0.00,,BKN042,0.00,VWS V15.00,2017-02-20 12:00:00,
2017-02-20 07:01:00,41.7,30.8,30.12,NW,326,5.0,12.0,65,0.00,,BKN042,0.00,VWS V15.00,2017-02-20 12:01:00,
2017-02-20 07:02:00,41.7,30.8,30.12,WNW,299,6.0,12.0,65,0.00,,BKN042,0.00,VWS V15.00,2017-02-20 12:02:00,
2017-02-20 07:03:00,41.6,30.7,30.12,NNW,333,6.0,12.0,65,0.00,,BKN042,0.00,VWS V15.00,2017-02-20 12:03:00,
2017-02-20 07:04:00,41.6,30.7,30.12,NW,310,8.0,12.0,65,0.00,,BKN042,0.00,VWS V15.00,2017-02-20 12:04:00,
2017-02-20 07:05:00,41.5,31.0,30.12,North,10,5.0,12.0,66,0.00,,BKN042,0.00,VWS V15.00,2017-02-20 12:05:00,
2017-02-20 07:06:00,41.5,31.4,30.12,North,360,6.0,12.0,67,0.00,,BKN042,0.00,VWS V15.00,2017-02-20 12:06:00,
2017-02-20 07:07:00,41.4,31.3,30.12,North,355,9.0,12.0,67,0.00,,BKN042,0.00,VWS V15.00,2017-02-20 12:07:00,
2017-02-20 07:08:00,41.3,31.2,30.12,North,355,8.0,12.0,67,0.00,,BKN042,0.00,VWS V15.00,2017-02-20 12:08:00,
2017-02-20 07:09:00,41.2,31.1,30.12,North,5,8.0,12.0,67,0.00,,BKN042,0.00,VWS V15.00,2017-02-20 12:09:00,
2017-02-20 07:10:00,41.0,30.9,30.12,NNE,13,8.0,12.0,67,0.00,,BKN042,0.00,VWS V15.00,2017-02-20 12:10:00,
2017-02-20 07:11:00,40.9,31.2,30.12,NNW,340,7.0,12.0,68,0.00,,BKN042,0.00,VWS V15.00,2017-02-20 12:11:00,
2017-02-20 07:12:00,40.8,31.1,30.12,NNW,346,9.0,12.0,68,0.00,,BKN042,0.00,VWS V15.00,2017-02-20 12:12:00,
2017-02-20 07:13:00,40.7,31.0,30.12,NNW,342,3.0,12.0,68,0.00,,BKN042,0.00,VWS V15.00,2017-02-20 12:13:00,
2017-02-20 07:14:00,40.7,31.3,30.12,NW,325,4.0,12.0,69,0.00,,BKN042,0.00,VWS V15.00,2017-02-20 12:14:00,
2017-02-20 07:15:00,40.7,31.3,30.12,NNW,334,6.0,12.0,69,0.00,,BKN042,0.00,VWS V15.00,2017-02-20 12:15:00,
2017-02-20 07:16:00,40.7,31.3,30.12,NW,313,8.0,12.0,69,0.00,,BKN042,0.00,VWS V15.00,2017-02-20 12:16:00,
2017-02-20 07:17:00,40.7,31.7,30.12,NW,321,6.0,12.0,70,0.00,,BKN042,0.00,VWS V15.00,2017-02-20 12:17:00,
2017-02-20 07:18:00,40.7,31.7,30.12,NW,320,7.0,12.0,70,0.00,,BKN042,0.00,VWS V15.00,2017-02-20 12:18:00,
2017-02-20 07:19:00,40.7,31.7,30.12,NW,312,8.0,12.0,70,0.00,,BKN042,0.00,VWS V15.00,2017-02-20 12:19:00,
2017-02-20 07:20:00,40.8,31.8,30.12,NW,324,4.0,12.0,70,0.00,,BKN042,0.00,VWS V15.00,2017-02-20 12:20:00,
2017-02-20 07:21:00,40.9,31.5,30.12,NNW,333,4.0,12.0,69,0.00,,BKN041,0.00,VWS V15.00,2017-02-20 12:21:00,
2017-02-20 07:22:00,41.0,31.6,30.12,NW,305,7.0,12.0,69,0.00,,BKN041,0.00,VWS V15.00,2017-02-20 12:22:00,
2017-02-20 07:23:00,40.9,31.2,30.12,North,349,7.0,12.0,68,0.00,,BKN041,0.00,VWS V15.00,2017-02-20 12:23:00,
2017-02-20 07:24:00,40.9,31.2,30.12,North,5,7.0,12.0,68,0.00,,BKN041,0.00,VWS V15.00,2017-02-20 12:24:00,
2017-02-20 07:25:00,40.8,31.1,30.12,North,360,7.0,12.0,68,0.00,,BKN041,0.00,VWS V15.00,2017-02-20 12:25:00,
2017-02-20 07:26:00,40.7,31.3,30.12,North,355,8.0,12.0,69,0.00,,BKN041,0.00,VWS V15.00,2017-02-20 12:26:00,
2017-02-20 07:27:00,40.7,31.3,30.12,NNW,341,6.0,12.0,69,0.00,,BKN041,0.00,VWS V15.00,2017-02-20 12:27:00,
2017-02-20 07:28:00,40.7,31.0,30.12,NE,36,5.0,12.0,68,0.00,,BKN041,0.00,VWS V15.00,2017-02-20 12:28:00,
2017-02-20 07:29:00,40.7,31.3,30.12,NW,317,6.0,12.0,69,0.00,,BKN041,0.00,VWS V15.00,2017-02-20 12:29:00,
2017-02-20 07:30:00,40.6,30.9,30.12,NNW,345,6.0,14.0,68,0.00,,BKN041,0.00,VWS V15.00,2017-02-20 12:30:00,
2017-02-20 07:31:00,40.6,30.9,30.12,NW,320,11.0,11.0,68,0.00,,BKN041,0.00,VWS V15.00,2017-02-20 12:31:00,
2017-02-20 07:32:00,40.5,30.8,30.12,NW,317,9.0,11.0,68,0.00,,BKN041,0.00,VWS V15.00,2017-02-20 12:32:00,
2017-02-20 07:33:00,40.4,30.7,30.12,NNW,346,5.0,11.0,68,0.00,,BKN041,0.00,VWS V15.00,2017-02-20 12:33:00,
2017-02-20 07:34:00,40.4,31.0,30.12,North,355,5.0,11.0,69,0.00,,BKN041,0.00,VWS V15.00,2017-02-20 12:34:00,
2017-02-20 07:35:00,40.3,30.6,30.12,NNW,346,7.0,11.0,68,0.00,,BKN041,0.00,VWS V15.00,2017-02-20 12:35:00,
2017-02-20 07:36:00,40.3,30.6,30.12,NNW,340,7.0,11.0,68,0.00,,BKN041,0.00,VWS V15.00,2017-02-20 12:36:00,
2017-02-20 07:37:00,40.2,30.9,30.12,NW,319,9.0,11.0,69,0.00,,BKN041,0.00,VWS V15.00,2017-02-20 12:37:00,
2017-02-20 07:38:00,40.2,30.9,30.12,NW,323,7.0,14.0,69,0.00,,BKN041,0.00,VWS V15.00,2017-02-20 12:38:00,
2017-02-20 07:39:00,40.2,30.9,30.12,NNW,345,10.0,14.0,69,0.00,,BKN041,0.00,VWS V15.00,2017-02-20 12:39:00,
2017-02-20 07:40:00,40.1,30.8,30.12,NNW,336,7.0,14.0,69,0.00,,BKN041,0.00,VWS V15.00,2017-02-20 12:40:00,
2017-02-20 07:41:00,40.1,30.8,30.12,North,355,5.0,14.0,69,0.00,,BKN041,0.00,VWS V15.00,2017-02-20 12:41:00,
2017-02-20 07:42:00,40.0,30.7,30.13,NNW,338,6.0,14.0,69,0.00,,BKN041,0.00,VWS V15.00,2017-02-20 12:42:00,
2017-02-20 07:43:00,40.0,30.3,30.13,NNW,345,8.0,14.0,68,0.00,,BKN041,0.00,VWS V15.00,2017-02-20 12:43:00,
2017-02-20 07:44:00,40.0,30.3,30.12,NNW,339,9.0,14.0,68,0.00,,BKN041,0.00,VWS V15.00,2017-02-20 12:44:00,
2017-02-20 07:45:00,39.9,30.6,30.13,NNW,334,7.0,14.0,69,0.00,,BKN041,0.00,VWS V15.00,2017-02-20 12:45:00,
2017-02-20 07:46:00,39.9,30.2,30.12,NNW,333,6.0,14.0,68,0.00,,BKN041,0.00,VWS V15.00,2017-02-20 12:46:00,
2017-02-20 07:47:00,39.9,30.6,30.13,NW,311,10.0,14.0,69,0.00,,BKN041,0.00,VWS V15.00,2017-02-20 12:47:00,
2017-02-20 07:48:00,39.9,30.6,30.13,NW,311,7.0,14.0,69,0.00,,BKN041,0.00,VWS V15.00,2017-02-20 12:48:00,
2017-02-20 07:49:00,40.0,30.7,30.13,NW,325,8.0,14.0,69,0.00,,BKN041,0.00,VWS V15.00,2017-02-20 12:49:00,
2017-02-20 07:50:00,40.0,30.7,30.13,NNW,338,7.0,14.0,69,0.00,,BKN041,0.00,VWS V15.00,2017-02-20 12:50:00,
2017-02-20 07:51:00,40.0,30.7,30.13,NW,323,7.0,14.0,69,0.00,,BKN041,0.00,VWS V15.00,2017-02-20 12:51:00,
2017-02-20 07:52:00,40.0,30.7,30.13,NNW,340,9.0,14.0,69,0.00,,BKN041,0.00,VWS V15.00,2017-02-20 12:52:00,
2017-02-20 07:53:00,40.1,30.8,30.13,NW,320,8.0,14.0,69,0.00,,BKN041,0.00,VWS V15.00,2017-02-20 12:53:00,
2017-02-20 07:54:00,40.1,30.4,30.13,NNW,333,5.0,14.0,68,0.00,,BKN041,0.00,VWS V15.00,2017-02-20 12:54:00,
2017-02-20 07:55:00,40.1,30.4,30.13,NNW,333,7.0,14.0,68,0.00,,BKN041,0.00,VWS V15.00,2017-02-20 12:55:00,
2017-02-20 07:56:00,40.2,30.5,30.13,NNW,346,4.0,14.0,68,0.00,,BKN041,0.00,VWS V15.00,2017-02-20 12:56:00,
2017-02-20 07:57:00,40.1,30.0,30.13,NNW,344,10.0,14.0,67,0.00,,BKN041,0.00,VWS V15.00,2017-02-20 12:57:00,
2017-02-20 07:58:00,40.1,30.0,30.13,North,355,8.0,14.0,67,0.00,,BKN041,0.00,VWS V15.00,2017-02-20 12:58:00,
2017-02-20 07:59:00,40.0,29.9,30.13,NNW,342,8.0,14.0,67,0.00,,BKN041,0.00,VWS V15.00,2017-02-20 12:59:00,
2017-02-20 08:00:00,39.9,29.9,30.13,NNW,340,8.0,14.0,67,0.00,,BKN041,0.00,VWS V15.00,2017-02-20 13:00:00,
2017-02-20 08:01:00,39.9,29.9,30.13,NNW,346,7.0,8.0,67,0.00,,BKN045,0.00,VWS V15.00,2017-02-20 13:01:00,
2017-02-20 08:02:00,39.9,30.2,30.13,NNW,341,11.0,11.0,68,0.00,,BKN045,0.00,VWS V15.00,2017-02-20 13:02:00,
2017-02-20 08:03:00,39.9,29.9,30.13,North,355,4.0,11.0,67,0.00,,BKN045,0.00,VWS V15.00,2017-02-20 13:03:00,
2017-02-20 08:04:00,39.9,29.9,30.12,NNW,348,9.0,11.0,67,0.00,,BKN045,0.00,VWS V15.00,2017-02-20 13:04:00,
2017-02-20 08:05:00,39.9,29.9,30.13,NNW,343,5.0,11.0,67,0.00,,BKN045,0.00,VWS V15.00,2017-02-20 13:05:00,
2017-02-20 08:06:00,39.9,30.2,30.13,North,350,4.0,11.0,68,0.00,,BKN045,0.00,VWS V15.00,2017-02-20 13:06:00,
2017-02-20 08:07:00,39.9,30.2,30.12,NNW,344,6.0,11.0,68,0.00,,BKN045,0.00,VWS V15.00,2017-02-20 13:07:00,
2017-02-20 08:08:00,39.9,29.9,30.12,NNW,342,3.0,11.0,67,0.00,,BKN045,0.00,VWS V15.00,2017-02-20 13:08:00,
2017-02-20 08:09:00,39.9,29.9,30.12,North,360,5.0,11.0,67,0.00,,BKN045,0.00,VWS V15.00,2017-02-20 13:09:00,
2017-02-20 08:10:00,39.9,29.9,30.13,North,355,6.0,11.0,67,0.00,,BKN045,0.00,VWS V15.00,2017-02-20 13:10:00,
2017-02-20 08:11:00,40.0,29.9,30.13,North,350,9.0,11.0,67,0.00,,BKN045,0.00,VWS V15.00,2017-02-20 13:11:00,
2017-02-20 08:12:00,40.0,29.9,30.12,NNW,344,11.0,13.0,67,0.00,,BKN045,0.00,VWS V15.00,2017-02-20 13:12:00,
2017-02-20 08:13:00,39.9,29.9,30.13,NW,322,8.0,13.0,67,0.00,,BKN045,0.00,VWS V15.00,2017-02-20 13:13:00,
2017-02-20 08:14:00,39.9,29.9,30.13,NNW,340,5.0,13.0,67,0.00,,BKN045,0.00,VWS V15.00,2017-02-20 13:14:00,
2017-02-20 08:15:00,39.8,29.8,30.13,North,10,4.0,13.0,67,0.00,,BKN045,0.00,VWS V15.00,2017-02-20 13:15:00,
2017-02-20 08:16:00,39.8,29.8,30.13,North,355,4.0,13.0,67,0.00,,BKN045,0.00,VWS V15.00,2017-02-20 13:16:00,
2017-02-20 08:17:00,39.7,29.7,30.13,North,5,7.0,13.0,67,0.00,,BKN045,0.00,VWS V15.00,2017-02-20 13:17:00,
2017-02-20 08:18:00,39.8,29.8,30.13,NNE,29,9.0,13.0,67,0.00,,BKN045,0.00,VWS V15.00,2017-02-20 13:18:00,
2017-02-20 08:19:00,39.8,29.8,30.12,NNW,332,8.0,13.0,67,0.00,,BKN045,0.00,VWS V15.00,2017-02-20 13:19:00,
2017-02-20 08:20:00,39.8,29.8,30.13,NNW,336,6.0,13.0,67,0.00,,BKN045,0.00,VWS V15.00,2017-02-20 13:20:00,
2017-02-20 08:21:00,39.8,30.1,30.13,NNW,347,6.0,13.0,68,0.00,,BKN045,0.00,VWS V15.00,2017-02-20 13:21:00,
2017-02-20 08:22:00,39.8,29.8,30.12,North,5,3.0,13.0,67,0.00,,BKN045,0.00,VWS V15.00,2017-02-20 13:22:00,
2017-02-20 08:23:00,39.8,29.8,30.13,North,360,6.0,13.0,67,0.00,,BKN045,0.00,VWS V15.00,2017-02-20 13:23:00,
2017-02-20 08:24:00,39.8,30.1,30.12,NNW,346,5.0,13.0,68,0.00,,BKN045,0.00,VWS V15.00,2017-02-20 13:24:00,
2017-02-20 08:25:00,39.9,30.2,30.12,North,11,6.0,13.0,68,0.00,,BKN045,0.00,VWS V15.00,2017-02-20 13:25:00,
2017-02-20 08:26:00,39.9,30.2,30.12,NNW,342,4.0,13.0,68,0.00,,BKN045,0.00,VWS V15.00,2017-02-20 13:26:00,
2017-02-20 08:27:00,39.9,30.2,30.13,North,355,6.0,13.0,68,0.00,,BKN045,0.00,VWS V15.00,2017-02-20 13:27:00,
2017-02-20 08:28:00,39.8,30.1,30.12,North,360,4.0,13.0,68,0.00,,BKN045,0.00,VWS V15.00,2017-02-20 13:28:00,
2017-02-20 08:29:00,39.8,29.8,30.13,North,5,4.0,13.0,67,0.00,,BKN045,0.00,VWS V15.00,2017-02-20 13:29:00,
2017-02-20 08:30:00,39.8,29.8,30.12,North,9,4.0,13.0,67,0.00,,BKN045,0.00,VWS V15.00,2017-02-20 13:30:00,
2017-02-20 08:31:00,39.8,29.8,30.13,North,351,4.0,6.0,67,0.00,,BKN045,0.00,VWS V15.00,2017-02-20 13:31:00,
2017-02-20 08:32:00,39.8,29.8,30.12,NNW,334,7.0,8.0,67,0.00,,BKN045,0.00,VWS V15.00,2017-02-20 13:32:00,
2017-02-20 08:33:00,39.9,29.9,30.12,NNW,342,4.0,8.0,67,0.00,,BKN045,0.00,VWS V15.00,2017-02-20 13:33:00,
2017-02-20 08:34:00,39.9,29.9,30.12,NNE,27,3.0,8.0,67,0.00,,BKN045,0.00,VWS V15.00,2017-02-20 13:34:00,
2017-02-20 08:35:00,39.9,29.9,30.12,NNE,22,3.0,8.0,67,0.00,,BKN045,0.00,VWS V15.00,2017-02-20 13:35:00,
2017-02-20 08:36:00,40.0,29.9,30.12,NNW,348,7.0,10.0,67,0.00,,BKN045,0.00,VWS V15.00,2017-02-20 13:36:00,
2017-02-20 08:37:00,40.0,29.9,30.13,North,5,3.0,10.0,67,0.00,,BKN045,0.00,VWS V15.00,2017-02-20 13:37:00,
2017-02-20 08:38:00,40.0,29.9,30.12,NNW,343,4.0,10.0,67,0.00,,BKN045,0.00,VWS V15.00,2017-02-20 13:38:00,
2017-02-20 08:39:00,40.0,29.9,30.12,NNE,28,3.0,10.0,67,0.00,,BKN045,0.00,VWS V15.00,2017-02-20 13:39:00,
2017-02-20 08:40:00,40.0,29.9,30.12,North,10,3.0,10.0,67,0.00,,BKN045,0.00,VWS V15.00,2017-02-20 13:40:00,
2017-02-20 08:41:00,40.0,29.6,30.12,NNW,342,3.0,10.0,66,0.00,,SCT047,0.00,VWS V15.00,2017-02-20 13:41:00,
2017-02-20 08:42:00,40.0,29.6,30.12,NNW,344,4.0,10.0,66,0.00,,SCT047,0.00,VWS V15.00,2017-02-20 13:42:00,
2017-02-20 08:43:00,40.1,30.0,30.12,NNW,331,10.0,10.0,67,0.00,,SCT047,0.00,VWS V15.00,2017-02-20 13:43:00,
2017-02-20 08:44:00,40.1,30.0,30.12,North,355,7.0,10.0,67,0.00,,SCT047,0.00,VWS V15.00,2017-02-20 13:44:00,
2017-02-20 08:45:00,40.0,29.6,30.12,North,5,6.0,10.0,66,0.00,,SCT047,0.00,VWS V15.00,2017-02-20 13:45:00,
2017-02-20 08:46:00,40.0,29.9,30.12,NNW,332,5.0,10.0,67,0.00,,SCT047,0.00,VWS V15.00,2017-02-20 13:46:00,
2017-02-20 08:47:00,40.0,29.9,30.12,North,5,3.0,10.0,67,0.00,,SCT047,0.00,VWS V15.00,2017-02-20 13:47:00,
2017-02-20 08:48:00,40.0,29.9,30.12,NNW,346,7.0,10.0,67,0.00,,SCT047,0.00,VWS V15.00,2017-02-20 13:48:00,
2017-02-20 08:49:00,40.1,30.4,30.12,NNW,344,4.0,10.0,68,0.00,,SCT047,0.00,VWS V15.00,2017-02-20 13:49:00,
2017-02-20 08:50:00,40.1,30.0,30.12,North,360,9.0,10.0,67,0.00,,SCT047,0.00,VWS V15.00,2017-02-20 13:50:00,
2017-02-20 08:51:00,40.1,30.0,30.12,NNW,339,6.0,10.0,67,0.00,,SCT047,0.00,VWS V15.00,2017-02-20 13:51:00,
2017-02-20 08:52:00,40.1,30.0,30.13,North,9,3.0,10.0,67,0.00,,SCT047,0.00,VWS V15.00,2017-02-20 13:52:00,
2017-02-20 08:53:00,40.1,29.7,30.13,North,350,3.0,10.0,66,0.00,,SCT047,0.00,VWS V15.00,2017-02-20 13:53:00,
2017-02-20 08:54:00,40.0,29.6,30.12,NW,325,5.0,10.0,66,0.00,,SCT047,0.00,VWS V15.00,2017-02-20 13:54:00,
2017-02-20 08:55:00,40.0,29.9,30.13,NNE,22,7.0,10.0,67,0.00,,SCT047,0.00,VWS V15.00,2017-02-20 13:55:00,
2017-02-20 08:56:00,40.0,29.6,30.13,North,350,5.0,10.0,66,0.00,,SCT047,0.00,VWS V15.00,2017-02-20 13:56:00,
2017-02-20 08:57:00,40.0,29.6,30.12,NNE,13,6.0,11.0,66,0.00,,SCT047,0.00,VWS V15.00,2017-02-20 13:57:00,
2017-02-20 08:58:00,40.0,29.6,30.12,North,350,4.0,11.0,66,0.00,,SCT047,0.00,VWS V15.00,2017-02-20 13:58:00,
2017-02-20 08:59:00,39.9,29.5,30.12,North,5,8.0,11.0,66,0.00,,SCT047,0.00,VWS V15.00,2017-02-20 13:59:00,
2017-02-20 09:00:00,39.9,29.9,30.13,NNW,337,6.0,11.0,67,0.00,,SCT047,0.00,VWS V15.00,2017-02-20 14:00:00,
2017-02-20 09:01:00,39.9,29.5,30.13,NNW,340,6.0,7.0,66,0.00,,SCT046,0.00,VWS V15.00,2017-02-20 14:01:00,
2017-02-20 09:02:00,39.8,29.4,30.13,NNW,348,4.0,9.0,66,0.00,,SCT046,0.00,VWS V15.00,2017-02-20 14:02:00,
2017-02-20 09:03:00,39.8,29.8,30.13,NNW,342,5.0,9.0,67,0.00,,SCT046,0.00,VWS V15.00,2017-02-20 14:03:00,
2017-02-20 09:04:00,39.8,29.8,30.13,NNW,338,2.0,10.0,67,0.00,,SCT046,0.00,VWS V15.00,2017-02-20 14:04:00,
2017-02-20 09:05:00,39.8,29.4,30.13,NW,322,6.0,10.0,66,0.00,,SCT046,0.00,VWS V15.00,2017-02-20 14:05:00,
2017-02-20 09:06:00,39.8,29.4,30.13,NW,325,10.0,12.0,66,0.00,,SCT046,0.00,VWS V15.00,2017-02-20 14:06:00,
2017-02-20 09:07:00,39.8,29.8,30.13,North,360,7.0,12.0,67,0.00,,SCT046,0.00,VWS V15.00,2017-02-20 14:07:00,
2017-02-20 09:08:00,39.8,29.4,30.13,NNW,340,7.0,12.0,66,0.00,,SCT046,0.00,VWS V15.00,2017-02-20 14:08:00,
2017-02-20 09:09:00,39.8,29.4,30.13,NNW,344,9.0,12.0,66,0.00,,SCT046,0.00,VWS V15.00,2017-02-20 14:09:00,
2017-02-20 09:10:00,39.8,29.4,30.13,NNW,347,8.0,12.0,66,0.00,,SCT046,0.00,VWS V15.00,2017-02-20 14:10:00,
2017-02-20 09:11:00,39.8,29.4,30.13,NNW,345,8.0,12.0,66,0.00,,SCT046,0.00,VWS V15.00,2017-02-20 14:11:00,
2017-02-20 09:12:00,39.8,29.8,30.13,NW,325,8.0,12.0,67,0.00,,SCT046,0.00,VWS V15.00,2017-02-20 14:12:00,
2017-02-20 09:13:00,39.8,29.4,30.13,North,360,7.0,12.0,66,0.00,,SCT046,0.00,VWS V15.00,2017-02-20 14:13:00,
2017-02-20 09:14:00,39.7,29.3,30.13,North,9,6.0,12.0,66,0.00,,SCT046,0.00,VWS V15.00,2017-02-20 14:14:00,
2017-02-20 09:15:00,39.7,29.3,30.13,NW,325,4.0,12.0,66,0.00,,SCT046,0.00,VWS V15.00,2017-02-20 14:15:00,
2017-02-20 09:16:00,39.7,29.3,30.13,NNW,336,7.0,12.0,66,0.00,,SCT046,0.00,VWS V15.00,2017-02-20 14:16:00,
2017-02-20 09:17:00,39.7,29.7,30.13,NNW,346,2.0,12.0,67,0.00,,SCT046,0.00,VWS V15.00,2017-02-20 14:17:00,
2017-02-20 09:18:00,39.7,29.7,30.14,North,350,7.0,12.0,67,0.00,,SCT046,0.00,VWS V15.00,2017-02-20 14:18:00,
2017-02-20 09:19:00,39.7,29.3,30.14,NNW,340,8.0,12.0,66,0.00,,SCT046,0.00,VWS V15.00,2017-02-20 14:19:00,
2017-02-20 09:20:00,39.7,29.3,30.14,NNW,338,10.0,12.0,66,0.00,,SCT046,0.00,VWS V15.00,2017-02-20 14:20:00,
2017-02-20 09:21:00,39.7,29.3,30.14,NNW,332,6.0,12.0,66,0.00,,SCT046,0.00,VWS V15.00,2017-02-20 14:21:00,
2017-02-20 09:22:00,39.7,29.7,30.14,NNW,346,9.0,12.0,67,0.00,,SCT046,0.00,VWS V15.00,2017-02-20 14:22:00,
2017-02-20 09:23:00,39.6,29.2,30.14,NNW,346,8.0,12.0,66,0.00,,SCT046,0.00,VWS V15.00,2017-02-20 14:23:00,
2017-02-20 09:24:00,39.6,29.2,30.14,NNE,12,3.0,12.0,66,0.00,,SCT046,0.00,VWS V15.00,2017-02-20 14:24:00,
2017-02-20 09:25:00,39.5,29.1,30.13,NNW,343,5.0,12.0,66,0.00,,SCT046,0.00,VWS V15.00,2017-02-20 14:25:00,
2017-02-20 09:26:00,39.5,29.1,30.14,NNW,331,3.0,12.0,66,0.00,,SCT046,0.00,VWS V15.00,2017-02-20 14:26:00,
2017-02-20 09:27:00,39.6,29.2,30.14,North,5,3.0,12.0,66,0.00,,SCT046,0.00,VWS V15.00,2017-02-20 14:27:00,
2017-02-20 09:28:00,39.6,29.6,30.14,North,355,5.0,12.0,67,0.00,,SCT046,0.00,VWS V15.00,2017-02-20 14:28:00,
2017-02-20 09:29:00,39.6,29.6,30.14,NNW,340,5.0,12.0,67,0.00,,SCT046,0.00,VWS V15.00,2017-02-20 14:29:00,
2017-02-20 09:30:00,39.7,29.7,30.14,NW,320,6.0,12.0,67,0.00,,SCT046,0.00,VWS V15.00,2017-02-20 14:30:00,
2017-02-20 09:31:00,39.8,29.8,30.14,NW,313,7.0,7.0,67,0.00,,SCT046,0.00,VWS V15.00,2017-02-20 14:31:00,
2017-02-20 09:32:00,39.8,29.8,30.14,NW,321,8.0,8.0,67,0.00,,SCT046,0.00,VWS V15.00,2017-02-20 14:32:00,
2017-02-20 09:33:00,39.8,29.4,30.14,NNW,338,3.0,10.0,66,0.00,,SCT046,0.00,VWS V15.00,2017-02-20 14:33:00,
2017-02-20 09:34:00,39.8,29.4,30.14,NNW,340,5.0,10.0,66,0.00,,SCT046,0.00,VWS V15.00,2017-02-20 14:34:00,
2017-02-20 09:35:00,39.8,29.4,30.14,NNW,327,5.0,10.0,66,0.00,,SCT046,0.00,VWS V15.00,2017-02-20 14:35:00,
2017-02-20 09:36:00,39.7,28.9,30.14,North,350,6.0,10.0,65,0.00,,SCT046,0.00,VWS V15.00,2017-02-20 14:36:00,
2017-02-20 09:37:00,39.7,29.3,30.14,North,9,5.0,10.0,66,0.00,,SCT046,0.00,VWS V15.00,2017-02-20 14:37:00,
2017-02-20 09:38:00,39.7,29.3,30.14,NNW,342,7.0,10.0,66,0.00,,SCT046,0.00,VWS V15.00,2017-02-20 14:38:00,
2017-02-20 09:39:00,39.7,29.3,30.14,NNW,347,10.0,10.0,66,0.00,,SCT046,0.00,VWS V15.00,2017-02-20 14:39:00,
2017-02-20 09:40:00,39.7,29.7,30.14,NNW,347,6.0,10.0,67,0.00,,SCT046,0.00,VWS V15.00,2017-02-20 14:40:00,
2017-02-20 09:41:00,39.7,29.3,30.14,North,360,7.0,10.0,66,0.00,,CLR,0.00,VWS V15.00,2017-02-20 14:41:00,
2017-02-20 09:42:00,39.7,29.7,30.14,North,355,3.0,10.0,67,0.00,,CLR,0.00,VWS V15.00,2017-02-20 14:42:00,
2017-02-20 09:43:00,39.8,29.8,30.14,North,355,3.0,10.0,67,0.00,,CLR,0.00,VWS V15.00,2017-02-20 14:43:00,
2017-02-20 09:44:00,39.8,29.8,30.14,North,355,2.0,10.0,67,0.00,,CLR,0.00,VWS V15.00,2017-02-20 14:44:00,
2017-02-20 09:45:00,39.9,29.9,30.14,NNW,327,6.0,10.0,67,0.00,,CLR,0.00,VWS V15.00,2017-02-20 14:45:00,
2017-02-20 09:46:00,40.0,29.9,30.14,NNW,348,5.0,10.0,67,0.00,,CLR,0.00,VWS V15.00,2017-02-20 14:46:00,
2017-02-20 09:47:00,40.1,30.0,30.14,NNW,346,5.0,10.0,67,0.00,,CLR,0.00,VWS V15.00,2017-02-20 14:47:00,
2017-02-20 09:48:00,40.1,30.0,30.14,NE,42,4.0,10.0,67,0.00,,CLR,0.00,VWS V15.00,2017-02-20 14:48:00,
2017-02-20 09:49:00,40.2,29.8,30.15,NNE,19,3.0,10.0,66,0.00,,CLR,0.00,VWS V15.00,2017-02-20 14:49:00,
2017-02-20 09:50:00,40.2,29.8,30.15,North,5,4.0,10.0,66,0.00,,CLR,0.00,VWS V15.00,2017-02-20 14:50:00,
2017-02-20 09:51:00,40.2,29.8,30.15,NE,34,4.0,10.0,66,0.00,,CLR,0.00,VWS V15.00,2017-02-20 14:51:00,
2017-02-20 09:52:00,40.2,29.8,30.15,NE,44,3.0,10.0,66,0.00,,CLR,0.00,VWS V15.00,2017-02-20 14:52:00,
2017-02-20 09:53:00,40.2,29.4,30.15,North,11,3.0,10.0,65,0.00,,CLR,0.00,VWS V15.00,2017-02-20 14:53:00,
2017-02-20 09:54:00,40.2,29.4,30.15,NNW,340,7.0,10.0,65,0.00,,CLR,0.00,VWS V15.00,2017-02-20 14:54:00,
2017-02-20 09:55:00,40.2,29.4,30.14,NNE,24,1.0,10.0,65,0.00,,CLR,0.00,VWS V15.00,2017-02-20 14:55:00,
2017-02-20 09:56:00,40.2,29.8,30.15,NNW,337,3.0,10.0,66,0.00,,CLR,0.00,VWS V15.00,2017-02-20 14:56:00,
2017-02-20 09:57:00,40.2,30.1,30.14,NNW,346,8.0,10.0,67,0.00,,CLR,0.00,VWS V15.00,2017-02-20 14:57:00,
2017-02-20 09:58:00,40.2,29.8,30.14,NNW,346,6.0,10.0,66,0.00,,CLR,0.00,VWS V15.00,2017-02-20 14:58:00,
2017-02-20 09:59:00,40.2,29.8,30.15,North,360,6.0,10.0,66,0.00,,CLR,0.00,VWS V15.00,2017-02-20 14:59:00,
2017-02-20 10:00:00,40.1,29.3,30.15,North,350,4.0,10.0,65,0.00,,CLR,0.00,VWS V15.00,2017-02-20 15:00:00,
2017-02-20 10:01:00,40.0,29.2,30.15,North,360,5.0,8.0,65,0.00,,CLR,0.00,VWS V15.00,2017-02-20 15:01:00,
2017-02-20 10:02:00,40.0,29.2,30.15,North,355,3.0,8.0,65,0.00,,CLR,0.00,VWS V15.00,2017-02-20 15:02:00,
2017-02-20 10:03:00,40.0,29.2,30.15,NNW,347,6.0,11.0,65,0.00,,CLR,0.00,VWS V15.00,2017-02-20 15:03:00,
2017-02-20 10:04:00,40.0,29.2,30.15,North,355,7.0,11.0,65,0.00,,CLR,0.00,VWS V15.00,2017-02-20 15:04:00,
2017-02-20 10:05:00,39.9,29.1,30.15,NNW,341,5.0,11.0,65,0.00,,CLR,0.00,VWS V15.00,2017-02-20 15:05:00,
2017-02-20 10:06:00,39.9,29.5,30.15,NNW,340,5.0,11.0,66,0.00,,CLR,0.00,VWS V15.00,2017-02-20 15:06:00,
2017-02-20 10:07:00,39.9,29.5,30.15,NNW,348,6.0,11.0,66,0.00,,CLR,0.00,VWS V15.00,2017-02-20 15:07:00,
2017-02-20 10:08:00,39.9,29.5,30.15,North,355,4.0,11.0,66,0.00,,CLR,0.00,VWS V15.00,2017-02-20 15:08:00,
2017-02-20 10:09:00,39.9,29.5,30.15,NNW,341,3.0,11.0,66,0.00,,CLR,0.00,VWS V15.00,2017-02-20 15:09:00,
2017-02-20 10:10:00,39.9,29.5,30.15,North,355,4.0,11.0,66,0.00,,CLR,0.00,VWS V15.00,2017-02-20 15:10:00,
2017-02-20 10:11:00,39.9,29.5,30.15,North,355,4.0,11.0,66,0.00,,CLR,0.00,VWS V15.00,2017-02-20 15:11:00,
2017-02-20 10:12:00,40.0,29.9,30.15,NNW,339,7.0,11.0,67,0.00,,CLR,0.00,VWS V15.00,2017-02-20 15:12:00,
2017-02-20 10:13:00,40.0,29.6,30.15,NNW,342,7.0,11.0,66,0.00,,CLR,0.00,VWS V15.00,2017-02-20 15:13:00,
2017-02-20 10:14:00,39.8,29.0,30.15,North,355,5.0,11.0,65,0.00,,CLR,0.00,VWS V15.00,2017-02-20 15:14:00,
2017-02-20 10:15:00,39.8,29.4,30.15,NNE,13,7.0,11.0,66,0.00,,CLR,0.00,VWS V15.00,2017-02-20 15:15:00,
2017-02-20 10:16:00,39.7,28.9,30.15,North,355,5.0,11.0,65,0.00,,CLR,0.00,VWS V15.00,2017-02-20 15:16:00,
2017-02-20 10:17:00,39.7,28.9,30.15,North,355,6.0,11.0,65,0.00,,CLR,0.00,VWS V15.00,2017-02-20 15:17:00,
2017-02-20 10:18:00,39.7,29.3,30.15,NNW,348,10.0,11.0,66,0.00,,CLR,0.00,VWS V15.00,2017-02-20 15:18:00,
2017-02-20 10:19:00,39.6,29.2,30.15,NNW,342,6.0,11.0,66,0.00,,CLR,0.00,VWS V15.00,2017-02-20 15:19:00,
2017-02-20 10:20:00,39.5,29.1,30.15,North,10,9.0,11.0,66,0.00,,CLR,0.00,VWS V15.00,2017-02-20 15:20:00,
2017-02-20 10:21:00,39.4,29.0,30.15,North,355,6.0,11.0,66,0.00,,CLR,0.00,VWS V15.00,2017-02-20 15:21:00,
2017-02-20 10:22:00,39.3,28.9,30.15,NNE,15,5.0,11.0,66,0.00,,CLR,0.00,VWS V15.00,2017-02-20 15:22:00,
2017-02-20 10:23:00,39.3,28.9,30.15,NNE,15,3.0,11.0,66,0.00,,CLR,0.00,VWS V15.00,2017-02-20 15:23:00,
2017-02-20 10:24:00,39.3,28.9,30.15,North,355,8.0,11.0,66,0.00,,CLR,0.00,VWS V15.00,2017-02-20 15:24:00,
2017-02-20 10:25:00,39.3,28.9,30.15,North,360,8.0,11.0,66,0.00,,CLR,0.00,VWS V15.00,2017-02-20 15:25:00,
2017-02-20 10:26:00,39.3,28.9,30.15,North,5,6.0,11.0,66,0.00,,CLR,0.00,VWS V15.00,2017-02-20 15:26:00,
2017-02-20 10:27:00,39.3,28.9,30.15,NNW,337,4.0,11.0,66,0.00,,CLR,0.00,VWS V15.00,2017-02-20 15:27:00,
2017-02-20 10:28:00,39.2,28.8,30.16,NNW,340,7.0,11.0,66,0.00,,CLR,0.00,VWS V15.00,2017-02-20 15:28:00,
2017-02-20 10:29:00,39.2,28.8,30.16,NW,316,7.0,11.0,66,0.00,,CLR,0.00,VWS V15.00,2017-02-20 15:29:00,
2017-02-20 10:30:00,39.2,28.4,30.16,NNW,342,9.0,11.0,65,0.00,,CLR,0.00,VWS V15.00,2017-02-20 15:30:00,
2017-02-20 10:31:00,39.1,28.7,30.16,North,360,5.0,8.0,66,0.00,,CLR,0.00,VWS V15.00,2017-02-20 15:31:00,
2017-02-20 10:32:00,39.1,29.1,30.16,North,355,8.0,8.0,67,0.00,,CLR,0.00,VWS V15.00,2017-02-20 15:32:00,
2017-02-20 10:33:00,39.1,29.1,30.16,North,349,4.0,9.0,67,0.00,,CLR,0.00,VWS V15.00,2017-02-20 15:33:00,
2017-02-20 10:34:00,39.0,28.6,30.16,North,355,5.0,9.0,66,0.00,,CLR,0.00,VWS V15.00,2017-02-20 15:34:00,
2017-02-20 10:35:00,39.0,28.6,30.16,NNE,32,3.0,9.0,66,0.00,,CLR,0.00,VWS V15.00,2017-02-20 15:35:00,
2017-02-20 10:36:00,39.0,28.6,30.16,NNW,348,7.0,9.0,66,0.00,,CLR,0.00,VWS V15.00,2017-02-20 15:36:00,
2017-02-20 10:37:00,39.0,28.6,30.17,NNE,15,6.0,9.0,66,0.00,,CLR,0.00,VWS V15.00,2017-02-20 15:37:00,
2017-02-20 10:38:00,39.0,28.6,30.17,North,11,6.0,12.0,66,0.00,,CLR,0.00,VWS V15.00,2017-02-20 15:38:00,
2017-02-20 10:39:00,39.0,28.6,30.17,NNW,340,9.0,12.0,66,0.00,,CLR,0.00,VWS V15.00,2017-02-20 15:39:00,
2017-02-20 10:40:00,38.9,28.5,30.17,North,355,7.0,12.0,66,0.00,,CLR,0.00,VWS V15.00,2017-02-20 15:40:00,
2017-02-20 10:41:00,38.9,28.5,30.17,NNW,338,7.0,12.0,66,0.00,,CLR,0.00,VWS V15.00,2017-02-20 15:41:00,
2017-02-20 10:42:00,38.9,28.5,30.17,NNW,335,6.0,12.0,66,0.00,,CLR,0.00,VWS V15.00,2017-02-20 15:42:00,
2017-02-20 10:43:00,38.9,28.9,30.17,NNW,343,5.0,12.0,67,0.00,,CLR,0.00,VWS V15.00,2017-02-20 15:43:00,
2017-02-20 10:44:00,38.8,28.4,30.17,NNW,330,6.0,12.0,66,0.00,,CLR,0.00,VWS V15.00,2017-02-20 15:44:00,
2017-02-20 10:45:00,38.8,28.4,30.17,NNW,341,5.0,12.0,66,0.00,,CLR,0.00,VWS V15.00,2017-02-20 15:45:00,
2017-02-20 10:46:00,38.8,28.8,30.17,NNW,336,5.0,12.0,67,0.00,,CLR,0.00,VWS V15.00,2017-02-20 15:46:00,
2017-02-20 10:47:00,38.7,28.7,30.17,North,360,7.0,12.0,67,0.00,,CLR,0.00,VWS V15.00,2017-02-20 15:47:00,
2017-02-20 10:48:00,38.7,28.3,30.17,North,350,6.0,12.0,66,0.00,,CLR,0.00,VWS V15.00,2017-02-20 15:48:00,
2017-02-20 10:49:00,38.6,28.2,30.17,NW,315,9.0,12.0,66,0.00,,CLR,0.00,VWS V15.00,2017-02-20 15:49:00,
2017-02-20 10:50:00,38.6,28.6,30.17,NNW,348,6.0,12.0,67,0.00,,CLR,0.00,VWS V15.00,2017-02-20 15:50:00,
2017-02-20 10:51:00,38.6,28.6,30.17,North,5,7.0,12.0,67,0.00,,CLR,0.00,VWS V15.00,2017-02-20 15:51:00,
2017-02-20 10:52:00,38.6,28.6,30.17,NNW,342,4.0,12.0,67,0.00,,CLR,0.00,VWS V15.00,2017-02-20 15:52:00,
2017-02-20 10:53:00,38.6,28.6,30.17,NW,322,7.0,12.0,67,0.00,,CLR,0.00,VWS V15.00,2017-02-20 15:53:00,
2017-02-20 10:54:00,38.6,29.0,30.17,NW,323,8.0,12.0,68,0.00,,CLR,0.00,VWS V15.00,2017-02-20 15:54:00,
2017-02-20 10:55:00,38.6,29.0,30.17,NW,321,6.0,12.0,68,0.00,,CLR,0.00,VWS V15.00,2017-02-20 15:55:00,
2017-02-20 10:56:00,38.6,28.6,30.17,North,5,2.0,12.0,67,0.00,,CLR,0.00,VWS V15.00,2017-02-20 15:56:00,
2017-02-20 10:57:00,38.6,29.0,30.17,NNE,15,3.0,12.0,68,0.00,,CLR,0.00,VWS V15.00,2017-02-20 15:57:00,
2017-02-20 10:58:00,38.6,28.6,30.17,North,351,6.0,12.0,67,0.00,,CLR,0.00,VWS V15.00,2017-02-20 15:58:00,
2017-02-20 10:59:00,38.6,28.6,30.17,NNW,345,7.0,12.0,67,0.00,,CLR,0.00,VWS V15.00,2017-02-20 15:59:00,
2017-02-20 11:00:00,38.6,28.6,30.17,North,5,9.0,12.0,67,0.00,,CLR,0.00,VWS V15.00,2017-02-20 16:00:00,
2017-02-20 11:01:00,38.6,28.6,30.17,NNW,343,5.0,11.0,67,0.00,,CLR,0.00,VWS V15.00,2017-02-20 16:01:00,
2017-02-20 11:02:00,38.5,28.5,30.17,NNW,347,6.0,11.0,67,0.00,,CLR,0.00,VWS V15.00,2017-02-20 16:02:00,
2017-02-20 11:03:00,38.5,28.5,30.17,NNE,13,4.0,11.0,67,0.00,,CLR,0.00,VWS V15.00,2017-02-20 16:03:00,
2017-02-20 11:04:00,38.5,28.9,30.17,North,360,6.0,11.0,68,0.00,,CLR,0.00,VWS V15.00,2017-02-20 16:04:00,
2017-02-20 11:05:00,38.5,28.9,30.17,North,10,5.0,11.0,68,0.00,,CLR,0.00,VWS V15.00,2017-02-20 16:05:00,
2017-02-20 11:06:00,38.4,28.8,30.17,NNW,338,7.0,11.0,68,0.00,,CLR,0.00,VWS V15.00,2017-02-20 16:06:00,
2017-02-20 11:07:00,38.4,28.8,30.17,NNE,17,5.0,11.0,68,0.00,,CLR,0.00,VWS V15.00,2017-02-20 16:07:00,
2017-02-20 11:08:00,38.4,28.8,30.17,North,5,6.0,11.0,68,0.00,,CLR,0.00,VWS V15.00,2017-02-20 16:08:00,
2017-02-20 11:09:00,38.4,28.4,30.17,NNE,25,1.0,11.0,67,0.00,,CLR,0.00,VWS V15.00,2017-02-20 16:09:00,
2017-02-20 11:10:00,38.4,28.4,30.17,NNE,15,3.0,11.0,67,0.00,,CLR,0.00,VWS V15.00,2017-02-20 16:10:00,
2017-02-20 11:11:00,38.4,28.4,30.17,NNE,13,3.0,11.0,67,0.00,,CLR,0.00,VWS V15.00,2017-02-20 16:11:00,
2017-02-20 11:12:00,38.4,28.8,30.17,NNW,338,4.0,11.0,68,0.00,,CLR,0.00,VWS V15.00,2017-02-20 16:12:00,
2017-02-20 11:13:00,38.4,28.8,30.17,NNW,338,2.0,11.0,68,0.00,,CLR,0.00,VWS V15.00,2017-02-20 16:13:00,
2017-02-20 11:14:00,38.4,28.8,30.17,NNW,338,2.0,11.0,68,0.00,,CLR,0.00,VWS V15.00,2017-02-20 16:14:00,
2017-02-20 11:15:00,38.4,28.8,30.17,NNW,341,2.0,11.0,68,0.00,,CLR,0.00,VWS V15.00,2017-02-20 16:15:00,
2017-02-20 11:16:00,38.4,29.1,30.17,NNW,344,5.0,11.0,69,0.00,,CLR,0.00,VWS V15.00,2017-02-20 16:16:00,
2017-02-20 11:17:00,38.4,29.1,30.17,North,5,4.0,11.0,69,0.00,,CLR,0.00,VWS V15.00,2017-02-20 16:17:00,
2017-02-20 11:18:00,38.4,28.8,30.18,NNW,344,10.0,11.0,68,0.00,,CLR,0.00,VWS V15.00,2017-02-20 16:18:00,
2017-02-20 11:19:00,38.4,28.8,30.18,NNW,344,6.0,11.0,68,0.00,,CLR,0.00,VWS V15.00,2017-02-20 16:19:00,
2017-02-20 11:20:00,38.3,28.3,30.18,North,355,4.0,11.0,67,0.00,,CLR,0.00,VWS V15.00,2017-02-20 16:20:00,
2017-02-20 11:21:00,38.3,28.3,30.18,NNW,348,5.0,11.0,67,0.00,,CLR,0.00,VWS V15.00,2017-02-20 16:21:00,
2017-02-20 11:22:00,38.3,28.3,30.18,NNW,344,2.0,11.0,67,0.00,,CLR,0.00,VWS V15.00,2017-02-20 16:22:00,
2017-02-20 11:23:00,38.3,28.3,30.18,North,5,4.0,11.0,67,0.00,,CLR,0.00,VWS V15.00,2017-02-20 16:23:00,
2017-02-20 11:24:00,38.3,28.3,30.18,North,5,5.0,11.0,67,0.00,,CLR,0.00,VWS V15.00,2017-02-20 16:24:00,
2017-02-20 11:25:00,38.3,28.7,30.18,North,9,4.0,11.0,68,0.00,,CLR,0.00,VWS V15.00,2017-02-20 16:25:00,
2017-02-20 11:26:00,38.3,28.7,30.18,North,5,6.0,11.0,68,0.00,,CLR,0.00,VWS V15.00,2017-02-20 16:26:00,
2017-02-20 11:27:00,38.2,28.2,30.18,NNW,340,4.0,11.0,67,0.00,,CLR,0.00,VWS V15.00,2017-02-20 16:27:00,
2017-02-20 11:28:00,38.2,28.6,30.18,NW,321,6.0,11.0,68,0.00,,CLR,0.00,VWS V15.00,2017-02-20 16:28:00,
2017-02-20 11:29:00,38.2,28.6,30.18,NW,325,3.0,11.0,68,0.00,,CLR,0.00,VWS V15.00,2017-02-20 16:29:00,
2017-02-20 11:30:00,38.2,28.2,30.18,NW,314,5.0,11.0,67,0.00,,CLR,0.00,VWS V15.00,2017-02-20 16:30:00,
2017-02-20 11:31:00,38.1,28.5,30.18,NNW,333,3.0,4.0,68,0.00,,CLR,0.00,VWS V15.00,2017-02-20 16:31:00,
2017-02-20 11:32:00,38.1,28.5,30.18,North,355,5.0,5.0,68,0.00,,CLR,0.00,VWS V15.00,2017-02-20 16:32:00,
2017-02-20 11:33:00,38.1,28.5,30.18,North,11,3.0,5.0,68,0.00,,CLR,0.00,VWS V15.00,2017-02-20 16:33:00,
2017-02-20 11:34:00,38.1,28.1,30.18,NNW,342,3.0,5.0,67,0.00,,CLR,0.00,VWS V15.00,2017-02-20 16:34:00,
2017-02-20 11:35:00,38.1,28.5,30.18,NW,318,6.0,6.0,68,0.00,,CLR,0.00,VWS V15.00,2017-02-20 16:35:00,
2017-02-20 11:36:00,38.1,28.5,30.18,NW,316,6.0,8.0,68,0.00,,CLR,0.00,VWS V15.00,2017-02-20 16:36:00,
2017-02-20 11:37:00,38.1,28.8,30.18,NNW,328,5.0,8.0,69,0.00,,CLR,0.00,VWS V15.00,2017-02-20 16:37:00,
2017-02-20 11:38:00,38.1,28.8,30.18,NW,321,6.0,8.0,69,0.00,,CLR,0.00,VWS V15.00,2017-02-20 16:38:00,
2017-02-20 11:39:00,38.0,28.8,30.18,NNW,342,5.0,8.0,69,0.00,,CLR,0.00,VWS V15.00,2017-02-20 16:39:00,
2017-02-20 11:40:00,38.0,28.4,30.18,NW,311,9.0,9.0,68,0.00,,CLR,0.00,VWS V15.00,2017-02-20 16:40:00,
2017-02-20 11:41:00,38.0,28.4,30.18,North,355,6.0,10.0,68,0.00,,CLR,0.00,VWS V15.00,2017-02-20 16:41:00,
2017-02-20 11:42:00,38.0,28.0,30.18,NNW,345,4.0,10.0,67,0.00,,CLR,0.00,VWS V15.00,2017-02-20 16:42:00,
2017-02-20 11:43:00,38.0,28.0,30.18,North,350,3.0,10.0,67,0.00,,CLR,0.00,VWS V15.00,2017-02-20 16:43:00,
2017-02-20 11:44:00,38.0,28.4,30.19,NNW,342,5.0,10.0,68,0.00,,CLR,0.00,VWS V15.00,2017-02-20 16:44:00,
2017-02-20 11:45:00,38.0,28.0,30.19,NNW,347,5.0,10.0,67,0.00,,CLR,0.00,VWS V15.00,2017-02-20 16:45:00,
2017-02-20 11:46:00,38.0,28.0,30.19,North,351,3.0,10.0,67,0.00,,CLR,0.00,VWS V15.00,2017-02-20 16:46:00,
2017-02-20 11:47:00,37.9,27.9,30.19,NNW,332,4.0,10.0,67,0.00,,CLR,0.00,VWS V15.00,2017-02-20 16:47:00,
2017-02-20 11:48:00,38.0,28.4,30.19,NNW,337,3.0,10.0,68,0.00,,CLR,0.00,VWS V15.00,2017-02-20 16:48:00,
2017-02-20 11:49:00,37.9,28.3,30.19,NNW,334,3.0,10.0,68,0.00,,CLR,0.00,VWS V15.00,2017-02-20 16:49:00,
2017-02-20 11:50:00,37.9,28.3,30.19,NW,317,7.0,10.0,68,0.00,,CLR,0.00,VWS V15.00,2017-02-20 16:50:00,
2017-02-20 11:51:00,37.9,28.3,30.19,North,350,3.0,10.0,68,0.00,,CLR,0.00,VWS V15.00,2017-02-20 16:51:00,
2017-02-20 11:52:00,37.9,28.3,30.19,NNW,348,3.0,10.0,68,0.00,,CLR,0.00,VWS V15.00,2017-02-20 16:52:00,
2017-02-20 11:53:00,37.9,28.6,30.19,NNE,13,4.0,10.0,69,0.00,,CLR,0.00,VWS V15.00,2017-02-20 16:53:00,
2017-02-20 11:54:00,37.9,28.3,30.19,NNE,17,3.0,10.0,68,0.00,,CLR,0.00,VWS V15.00,2017-02-20 16:54:00,
2017-02-20 11:55:00,37.9,28.3,30.19,North,351,2.0,10.0,68,0.00,,CLR,0.00,VWS V15.00,2017-02-20 16:55:00,
2017-02-20 11:56:00,37.9,28.3,30.19,NNW,344,4.0,10.0,68,0.00,,CLR,0.00,VWS V15.00,2017-02-20 16:56:00,
2017-02-20 11:57:00,37.9,28.3,30.19,North,360,3.0,10.0,68,0.00,,CLR,0.00,VWS V15.00,2017-02-20 16:57:00,
2017-02-20 11:58:00,37.8,28.2,30.19,North,360,4.0,10.0,68,0.00,,CLR,0.00,VWS V15.00,2017-02-20 16:58:00,
2017-02-20 11:59:00,37.9,28.3,30.19,NNE,19,4.0,10.0,68,0.00,,CLR,0.00,VWS V15.00,2017-02-20 16:59:00,
2017-02-20 12:00:00,37.8,28.2,30.19,NNE,28,3.0,10.0,68,0.00,,CLR,0.00,VWS V15.00,2017-02-20 17:00:00,
2017-02-20 12:01:00,37.8,28.2,30.20,NNW,345,2.0,6.0,68,0.00,,CLR,0.00,VWS V15.00,2017-02-20 17:01:00,
2017-02-20 12:02:00,37.8,28.2,30.20,NNE,21,2.0,6.0,68,0.00,,CLR,0.00,VWS V15.00,2017-02-20 17:02:00,
2017-02-20 12:03:00,37.8,28.2,30.20,North,350,4.0,6.0,68,0.00,,CLR,0.00,VWS V15.00,2017-02-20 17:03:00,
2017-02-20 12:04:00,37.7,28.1,30.20,North,349,3.0,6.0,68,0.00,,CLR,0.00,VWS V15.00,2017-02-20 17:04:00,
2017-02-20 12:05:00,37.7,28.5,30.20,NNE,22,4.0,6.0,69,0.00,,CLR,0.00,VWS V15.00,2017-02-20 17:05:00,
2017-02-20 12:06:00,37.7,28.5,30.20,NNW,340,3.0,6.0,69,0.00,,CLR,0.00,VWS V15.00,2017-02-20 17:06:00,
2017-02-20 12:07:00,37.7,28.5,30.20,North,5,2.0,6.0,69,0.00,,CLR,0.00,VWS V15.00,2017-02-20 17:07:00,
2017-02-20 12:08:00,37.6,28.4,30.20,North,11,4.0,6.0,69,0.00,,CLR,0.00,VWS V15.00,2017-02-20 17:08:00,
2017-02-20 12:09:00,37.6,28.0,30.20,North,355,4.0,6.0,68,0.00,,CLR,0.00,VWS V15.00,2017-02-20 17:09:00,
2017-02-20 12:10:00,37.5,28.3,30.21,North,9,5.0,6.0,69,0.00,,CLR,0.00,VWS V15.00,2017-02-20 17:10:00,
2017-02-20 12:11:00,37.5,28.3,30.21,North,5,4.0,6.0,69,0.00,,CLR,0.00,VWS V15.00,2017-02-20 17:11:00,
2017-02-20 12:12:00,37.5,28.3,30.21,North,355,3.0,6.0,69,0.00,,CLR,0.00,VWS V15.00,2017-02-20 17:12:00,
2017-02-20 12:13:00,37.4,28.2,30.21,North,355,4.0,6.0,69,0.00,,CLR,0.00,VWS V15.00,2017-02-20 17:13:00,
2017-02-20 12:14:00,37.4,28.2,30.21,North,355,3.0,6.0,69,0.00,,CLR,0.00,VWS V15.00,2017-02-20 17:14:00,
2017-02-20 12:15:00,37.3,28.4,30.21,NNW,336,4.0,6.0,70,0.00,,CLR,0.00,VWS V15.00,2017-02-20 17:15:00,
2017-02-20 12:16:00,37.3,28.4,30.21,NNW,340,4.0,6.0,70,0.00,,CLR,0.00,VWS V15.00,2017-02-20 17:16:00,
2017-02-20 12:17:00,37.3,28.4,30.21,NNW,341,3.0,6.0,70,0.00,,CLR,0.00,VWS V15.00,2017-02-20 17:17:00,
2017-02-20 12:18:00,37.2,28.3,30.21,NNW,341,4.0,6.0,70,0.00,,CLR,0.00,VWS V15.00,2017-02-20 17:18:00,
2017-02-20 12:19:00,37.2,28.3,30.21,NNW,334,4.0,6.0,70,0.00,,CLR,0.00,VWS V15.00,2017-02-20 17:19:00,
2017-02-20 12:20:00,37.2,28.3,30.21,NNW,346,4.0,6.0,70,0.00,,CLR,0.00,VWS V15.00,2017-02-20 17:20:00,
2017-02-20 12:21:00,37.1,28.2,30.21,North,355,3.0,6.0,70,0.00,,CLR,0.00,VWS V15.00,2017-02-20 17:21:00,
2017-02-20 12:22:00,37.1,28.2,30.21,North,355,2.0,6.0,70,0.00,,CLR,0.00,VWS V15.00,2017-02-20 17:22:00,
2017-02-20 12:23:00,37.1,28.2,30.22,North,355,2.0,6.0,70,0.00,,CLR,0.00,VWS V15.00,2017-02-20 17:23:00,
2017-02-20 12:24:00,37.1,28.2,30.22,North,355,1.0,6.0,70,0.00,,CLR,0.00,VWS V15.00,2017-02-20 17:24:00,
2017-02-20 12:25:00,37.0,28.1,30.22,North,355,2.0,6.0,70,0.00,,CLR,0.00,VWS V15.00,2017-02-20 17:25:00,
2017-02-20 12:26:00,37.0,28.1,30.22,North,355,0.0,6.0,70,0.00,,CLR,0.00,VWS V15.00,2017-02-20 17:26:00,
2017-02-20 12:27:00,36.9,28.0,30.22,North,355,3.0,6.0,70,0.00,,CLR,0.00,VWS V15.00,2017-02-20 17:27:00,
2017-02-20 12:28:00,36.9,28.0,30.22,North,360,2.0,6.0,70,0.00,,CLR,0.00,VWS V15.00,2017-02-20 17:28:00,
2017-02-20 12:29:00,36.8,28.0,30.22,NNW,347,3.0,6.0,70,0.00,,CLR,0.00,VWS V15.00,2017-02-20 17:29:00,
2017-02-20 12:30:00,36.8,28.0,30.22,NNW,348,2.0,6.0,70,0.00,,CLR,0.00,VWS V15.00,2017-02-20 17:30:00,
2017-02-20 12:31:00,36.8,28.0,30.23,NNW,348,1.0,2.0,70,0.00,,CLR,0.00,VWS V15.00,2017-02-20 17:31:00,
2017-02-20 12:32:00,36.7,27.9,30.23,NNW,348,4.0,4.0,70,0.00,,CLR,0.00,VWS V15.00,2017-02-20 17:32:00,
2017-02-20 12:33:00,36.7,28.2,30.23,NNW,348,3.0,4.0,71,0.00,,CLR,0.00,VWS V15.00,2017-02-20 17:33:00,
2017-02-20 12:34:00,36.6,28.1,30.23,NNW,348,5.0,5.0,71,0.00,,CLR,0.00,VWS V15.00,2017-02-20 17:34:00,
2017-02-20 12:35:00,36.6,28.1,30.23,North,355,3.0,6.0,71,0.00,,CLR,0.00,VWS V15.00,2017-02-20 17:35:00,
2017-02-20 12:36:00,36.6,28.1,30.23,North,355,2.0,6.0,71,0.00,,CLR,0.00,VWS V15.00,2017-02-20 17:36:00,
2017-02-20 12:37:00,36.6,28.1,30.23,North,355,2.0,6.0,71,0.00,,CLR,0.00,VWS V15.00,2017-02-20 17:37:00,
2017-02-20 12:38:00,36.5,28.0,30.23,North,355,3.0,6.0,71,0.00,,CLR,0.00,VWS V15.00,2017-02-20 17:38:00,
2017-02-20 12:39:00,36.5,28.0,30.23,North,355,2.0,6.0,71,0.00,,CLR,0.00,VWS V15.00,2017-02-20 17:39:00,
2017-02-20 12:40:00,36.5,28.0,30.23,North,355,1.0,6.0,71,0.00,,CLR,0.00,VWS V15.00,2017-02-20 17:40:00,
2017-02-20 12:41:00,36.5,28.0,30.24,North,355,3.0,6.0,71,0.00,,CLR,0.00,VWS V15.00,2017-02-20 17:41:00,
2017-02-20 12:42:00,36.5,28.4,30.24,North,355,2.0,6.0,72,0.00,,CLR,0.00,VWS V15.00,2017-02-20 17:42:00,
2017-02-20 12:43:00,36.5,28.4,30.24,North,355,1.0,6.0,72,0.00,,CLR,0.00,VWS V15.00,2017-02-20 17:43:00,
2017-02-20 12:44:00,36.4,28.2,30.24,North,355,0.0,6.0,72,0.00,,CLR,0.00,VWS V15.00,2017-02-20 17:44:00,
2017-02-20 12:45:00,36.4,28.2,30.24,North,355,0.0,6.0,72,0.00,,CLR,0.00,VWS V15.00,2017-02-20 17:45:00,
2017-02-20 12:46:00,36.4,28.2,30.24,North,355,1.0,6.0,72,0.00,,CLR,0.00,VWS V15.00,2017-02-20 17:46:00,
2017-02-20 12:47:00,36.4,28.2,30.24,North,355,2.0,6.0,72,0.00,,CLR,0.00,VWS V15.00,2017-02-20 17:47:00,
2017-02-20 12:48:00,36.3,28.1,30.24,North,355,1.0,6.0,72,0.00,,CLR,0.00,VWS V15.00,2017-02-20 17:48:00,
2017-02-20 12:49:00,36.3,28.1,30.25,North,355,1.0,6.0,72,0.00,,CLR,0.00,VWS V15.00,2017-02-20 17:49:00,
2017-02-20 12:50:00,36.3,28.1,30.25,North,355,0.0,6.0,72,0.00,,CLR,0.00,VWS V15.00,2017-02-20 17:50:00,
2017-02-20 12:51:00,36.2,28.1,30.25,North,355,0.0,6.0,72,0.00,,CLR,0.00,VWS V15.00,2017-02-20 17:51:00,
2017-02-20 12:52:00,36.2,28.1,30.25,North,355,0.0,6.0,72,0.00,,CLR,0.00,VWS V15.00,2017-02-20 17:52:00,
2017-02-20 12:53:00,36.2,28.1,30.25,North,355,1.0,6.0,72,0.00,,CLR,0.00,VWS V15.00,2017-02-20 17:53:00,
2017-02-20 12:54:00,36.1,28.0,30.25,North,355,0.0,6.0,72,0.00,,CLR,0.00,VWS V15.00,2017-02-20 17:54:00,
2017-02-20 12:55:00,36.1,28.0,30.25,North,355,0.0,6.0,72,0.00,,CLR,0.00,VWS V15.00,2017-02-20 17:55:00,
2017-02-20 12:56:00,36.1,28.0,30.25,North,355,0.0,6.0,72,0.00,,CLR,0.00,VWS V15.00,2017-02-20 17:56:00,
2017-02-20 12:57:00,36.0,27.9,30.25,North,355,2.0,6.0,72,0.00,,CLR,0.00,VWS V15.00,2017-02-20 17:57:00,
2017-02-20 12:58:00,36.0,27.9,30.25,North,355,0.0,6.0,72,0.00,,CLR,0.00,VWS V15.00,2017-02-20 17:58:00,
2017-02-20 12:59:00,35.9,27.8,30.25,North,355,1.0,6.0,72,0.00,,CLR,0.00,VWS V15.00,2017-02-20 17:59:00,
2017-02-20 13:00:00,35.9,27.8,30.25,North,355,1.0,6.0,72,0.00,,CLR,0.00,VWS V15.00,2017-02-20 18:00:00,
2017-02-20 13:01:00,35.9,27.8,30.25,North,355,0.0,2.0,72,0.00,,CLR,0.00,VWS V15.00,2017-02-20 18:01:00,
2017-02-20 13:02:00,35.8,27.7,30.26,North,355,2.0,2.0,72,0.00,,CLR,0.00,VWS V15.00,2017-02-20 18:02:00,
2017-02-20 13:03:00,35.8,27.7,30.26,North,355,0.0,3.0,72,0.00,,CLR,0.00,VWS V15.00,2017-02-20 18:03:00,
2017-02-20 13:04:00,35.7,27.9,30.26,North,355,0.0,3.0,73,0.00,,CLR,0.00,VWS V15.00,2017-02-20 18:04:00,
2017-02-20 13:05:00,35.7,27.9,30.26,North,355,1.0,3.0,73,0.00,,CLR,0.00,VWS V15.00,2017-02-20 18:05:00,
2017-02-20 13:06:00,35.7,27.9,30.26,North,355,1.0,3.0,73,0.00,,CLR,0.00,VWS V15.00,2017-02-20 18:06:00,
2017-02-20 13:07:00,35.6,27.8,30.26,North,355,0.0,3.0,73,0.00,,CLR,0.00,VWS V15.00,2017-02-20 18:07:00,
2017-02-20 13:08:00,35.6,27.8,30.26,North,355,1.0,3.0,73,0.00,,CLR,0.00,VWS V15.00,2017-02-20 18:08:00,
2017-02-20 13:09:00,35.6,27.8,30.26,North,355,1.0,3.0,73,0.00,,CLR,0.00,VWS V15.00,2017-02-20 18:09:00,
2017-02-20 13:10:00,35.5,27.7,30.26,North,355,0.0,3.0,73,0.00,,CLR,0.00,VWS V15.00,2017-02-20 18:10:00,
2017-02-20 13:11:00,35.5,27.7,30.26,North,355,2.0,3.0,73,0.00,,CLR,0.00,VWS V15.00,2017-02-20 18:11:00,
2017-02-20 13:12:00,35.5,27.7,30.26,North,355,1.0,3.0,73,0.00,,CLR,0.00,VWS V15.00,2017-02-20 18:12:00,
2017-02-20 13:13:00,35.4,27.6,30.26,North,355,0.0,3.0,73,0.00,,CLR,0.00,VWS V15.00,2017-02-20 18:13:00,
2017-02-20 13:14:00,35.4,27.6,30.26,North,355,0.0,3.0,73,0.00,,CLR,0.00,VWS V15.00,2017-02-20 18:14:00,
2017-02-20 13:15:00,35.3,27.5,30.26,North,355,0.0,3.0,73,0.00,,CLR,0.00,VWS V15.00,2017-02-20 18:15:00,
2017-02-20 13:16:00,35.3,27.5,30.26,North,355,0.0,3.0,73,0.00,,CLR,0.00,VWS V15.00,2017-02-20 18:16:00,
2017-02-20 13:17:00,35.3,27.5,30.26,North,355,0.0,3.0,73,0.00,,CLR,0.00,VWS V15.00,2017-02-20 18:17:00,
2017-02-20 13:18:00,35.2,27.4,30.26,North,355,0.0,3.0,73,0.00,,CLR,0.00,VWS V15.00,2017-02-20 18:18:00,
2017-02-20 13:19:00,35.2,27.4,30.27,North,355,0.0,3.0,73,0.00,,CLR,0.00,VWS V15.00,2017-02-20 18:19:00,
2017-02-20 13:20:00,35.2,27.8,30.26,North,355,0.0,3.0,74,0.00,,CLR,0.00,VWS V15.00,2017-02-20 18:20:00,
2017-02-20 13:21:00,35.1,27.7,30.27,North,355,0.0,3.0,74,0.00,,CLR,0.00,VWS V15.00,2017-02-20 18:21:00,
2017-02-20 13:22:00,35.1,27.7,30.27,North,355,0.0,3.0,74,0.00,,CLR,0.00,VWS V15.00,2017-02-20 18:22:00,
2017-02-20 13:23:00,35.1,27.7,30.27,North,355,0.0,3.0,74,0.00,,CLR,0.00,VWS V15.00,2017-02-20 18:23:00,
2017-02-20 13:24:00,35.0,27.6,30.27,North,355,0.0,3.0,74,0.00,,CLR,0.00,VWS V15.00,2017-02-20 18:24:00,
2017-02-20 13:25:00,35.0,27.2,30.27,North,355,0.0,3.0,73,0.00,,CLR,0.00,VWS V15.00,2017-02-20 18:25:00,
2017-02-20 13:26:00,34.9,27.1,30.27,North,355,0.0,3.0,73,0.00,,CLR,0.00,VWS V15.00,2017-02-20 18:26:00,
2017-02-20 13:27:00,34.8,27.0,30.27,North,355,0.0,3.0,73,0.00,,CLR,0.00,VWS V15.00,2017-02-20 18:27:00,
2017-02-20 13:28:00,34.8,27.0,30.27,North,355,0.0,3.0,73,0.00,,CLR,0.00,VWS V15.00,2017-02-20 18:28:00,
2017-02-20 13:29:00,34.8,27.0,30.27,North,355,0.0,3.0,73,0.00,,CLR,0.00,VWS V15.00,2017-02-20 18:29:00,
2017-02-20 13:30:00,34.7,27.3,30.27,North,355,0.0,3.0,74,0.00,,CLR,0.00,VWS V15.00,2017-02-20 18:30:00,
2017-02-20 13:31:00,34.7,27.3,30.27,North,355,0.0,0.0,74,0.00,,CLR,0.00,VWS V15.00,2017-02-20 18:31:00,
2017-02-20 13:32:00,34.6,27.2,30.27,North,355,0.0,0.0,74,0.00,,CLR,0.00,VWS V15.00,2017-02-20 18:32:00,
2017-02-20 13:33:00,34.6,27.2,30.27,North,355,0.0,0.0,74,0.00,,CLR,0.00,VWS V15.00,2017-02-20 18:33:00,
2017-02-20 13:34:00,34.6,27.2,30.27,North,355,0.0,0.0,74,0.00,,CLR,0.00,VWS V15.00,2017-02-20 18:34:00,
2017-02-20 13:35:00,34.5,27.1,30.27,North,355,0.0,0.0,74,0.00,,CLR,0.00,VWS V15.00,2017-02-20 18:35:00,
2017-02-20 13:36:00,34.5,27.1,30.27,North,355,0.0,0.0,74,0.00,,CLR,0.00,VWS V15.00,2017-02-20 18:36:00,
2017-02-20 13:37:00,34.4,27.0,30.27,North,355,0.0,0.0,74,0.00,,CLR,0.00,VWS V15.00,2017-02-20 18:37:00,
2017-02-20 13:38:00,34.3,26.9,30.27,North,355,0.0,0.0,74,0.00,,CLR,0.00,VWS V15.00,2017-02-20 18:38:00,
2017-02-20 13:39:00,34.3,26.9,30.27,North,355,0.0,0.0,74,0.00,,CLR,0.00,VWS V15.00,2017-02-20 18:39:00,
2017-02-20 13:40:00,34.2,26.8,30.27,North,355,0.0,0.0,74,0.00,,CLR,0.00,VWS V15.00,2017-02-20 18:40:00,
2017-02-20 13:41:00,34.2,26.8,30.27,North,355,0.0,0.0,74,0.00,,CLR,0.00,VWS V15.00,2017-02-20 18:41:00,
2017-02-20 13:42:00,34.1,26.7,30.27,North,355,0.0,0.0,74,0.00,,CLR,0.00,VWS V15.00,2017-02-20 18:42:00,
2017-02-20 13:43:00,34.1,26.7,30.27,North,355,0.0,0.0,74,0.00,,CLR,0.00,VWS V15.00,2017-02-20 18:43:00,
2017-02-20 13:44:00,34.0,26.6,30.27,North,355,0.0,0.0,74,0.00,,CLR,0.00,VWS V15.00,2017-02-20 18:44:00,
2017-02-20 13:45:00,33.9,26.5,30.27,North,355,0.0,0.0,74,0.00,,CLR,0.00,VWS V15.00,2017-02-20 18:45:00,
2017-02-20 13:46:00,33.9,26.5,30.28,North,355,0.0,0.0,74,0.00,,CLR,0.00,VWS V15.00,2017-02-20 18:46:00,
2017-02-20 13:47:00,33.8,26.4,30.28,North,355,0.0,0.0,74,0.00,,CLR,0.00,VWS V15.00,2017-02-20 18:47:00,
2017-02-20 13:48:00,33.8,26.4,30.28,North,355,0.0,0.0,74,0.00,,CLR,0.00,VWS V15.00,2017-02-20 18:48:00,
2017-02-20 13:49:00,33.6,26.2,30.28,North,355,0.0,0.0,74,0.00,,CLR,0.00,VWS V15.00,2017-02-20 18:49:00,
2017-02-20 13:50:00,33.5,26.1,30.28,North,355,0.0,0.0,74,0.00,,CLR,0.00,VWS V15.00,2017-02-20 18:50:00,
2017-02-20 13:51:00,33.4,26.3,30.28,North,355,0.0,0.0,75,0.00,,CLR,0.00,VWS V15.00,2017-02-20 18:51:00,
2017-02-20 13:52:00,33.3,26.2,30.28,North,355,0.0,0.0,75,0.00,,CLR,0.00,VWS V15.00,2017-02-20 18:52:00,
2017-02-20 13:53:00,33.2,26.1,30.28,North,355,0.0,0.0,75,0.00,,CLR,0.00,VWS V15.00,2017-02-20 18:53:00,
2017-02-20 13:54:00,33.1,26.0,30.28,North,355,0.0,0.0,75,0.00,,CLR,0.00,VWS V15.00,2017-02-20 18:54:00,
2017-02-20 13:55:00,33.0,26.0,30.28,North,355,0.0,0.0,75,0.00,,CLR,0.00,VWS V15.00,2017-02-20 18:55:00,
2017-02-20 13:56:00,32.9,25.9,30.28,North,355,0.0,0.0,75,0.00,,CLR,0.00,VWS V15.00,2017-02-20 18:56:00,
2017-02-20 13:57:00,32.8,25.8,30.27,North,355,0.0,0.0,75,0.00,,CLR,0.00,VWS V15.00,2017-02-20 18:57:00,
2017-02-20 13:58:00,32.8,25.8,30.27,North,355,0.0,0.0,75,0.00,,CLR,0.00,VWS V15.00,2017-02-20 18:58:00,
2017-02-20 13:59:00,32.7,25.7,30.27,North,355,0.0,0.0,75,0.00,,CLR,0.00,VWS V15.00,2017-02-20 18:59:00,
2017-02-20 14:00:00,32.6,25.9,30.27,North,355,0.0,0.0,76,0.00,,CLR,0.00,VWS V15.00,2017-02-20 19:00:00,
2017-02-20 14:01:00,32.5,25.8,30.28,North,355,0.0,0.0,76,0.00,,,0.00,VWS V15.00,2017-02-20 19:01:00,
2017-02-20 14:02:00,32.5,25.8,30.27,North,355,0.0,0.0,76,0.00,,,0.00,VWS V15.00,2017-02-20 19:02:00,
2017-02-20 14:03:00,32.4,25.7,30.28,North,355,0.0,0.0,76,0.00,,,0.00,VWS V15.00,2017-02-20 19:03:00,
2017-02-20 14:04:00,32.4,25.7,30.27,North,355,0.0,0.0,76,0.00,,,0.00,VWS V15.00,2017-02-20 19:04:00,
2017-02-20 14:05:00,32.3,25.6,30.28,North,355,0.0,0.0,76,0.00,,,0.00,VWS V15.00,2017-02-20 19:05:00,
2017-02-20 14:06:00,32.2,25.5,30.28,North,355,0.0,0.0,76,0.00,,,0.00,VWS V15.00,2017-02-20 19:06:00,
2017-02-20 14:07:00,32.2,25.5,30.28,North,355,0.0,0.0,76,0.00,,,0.00,VWS V15.00,2017-02-20 19:07:00,
2017-02-20 14:08:00,32.1,25.7,30.28,North,355,0.0,0.0,77,0.00,,,0.00,VWS V15.00,2017-02-20 19:08:00,
2017-02-20 14:09:00,32.1,25.7,30.28,North,355,0.0,0.0,77,0.00,,,0.00,VWS V15.00,2017-02-20 19:09:00,
2017-02-20 14:10:00,32.0,25.3,30.28,North,355,0.0,0.0,76,0.00,,,0.00,VWS V15.00,2017-02-20 19:10:00,
2017-02-20 14:11:00,31.9,25.5,30.28,North,355,0.0,0.0,77,0.00,,,0.00,VWS V15.00,2017-02-20 19:11:00,
2017-02-20 14:12:00,31.9,25.5,30.28,North,355,0.0,0.0,77,0.00,,,0.00,VWS V15.00,2017-02-20 19:12:00,
2017-02-20 14:13:00,31.8,25.4,30.28,North,355,0.0,0.0,77,0.00,,,0.00,VWS V15.00,2017-02-20 19:13:00,
2017-02-20 14:14:00,31.7,25.3,30.28,North,355,0.0,0.0,77,0.00,,,0.00,VWS V15.00,2017-02-20 19:14:00,
2017-02-20 14:15:00,31.6,25.2,30.28,North,355,0.0,0.0,77,0.00,,,0.00,VWS V15.00,2017-02-20 19:15:00,
2017-02-20 14:16:00,31.5,25.1,30.27,North,355,0.0,0.0,77,0.00,,,0.00,VWS V15.00,2017-02-20 19:16:00,
2017-02-20 14:17:00,31.5,25.1,30.27,North,355,0.0,0.0,77,0.00,,,0.00,VWS V15.00,2017-02-20 19:17:00,
2017-02-20 14:18:00,31.4,25.4,30.28,North,355,0.0,0.0,78,0.00,,,0.00,VWS V15.00,2017-02-20 19:18:00,
2017-02-20 14:19:00,31.4,25.4,30.28,North,355,0.0,0.0,78,0.00,,,0.00,VWS V15.00,2017-02-20 19:19:00,
2017-02-20 14:20:00,31.3,25.2,30.28,North,355,0.0,0.0,78,0.00,,,0.00,VWS V15.00,2017-02-20 19:20:00,
2017-02-20 14:21:00,31.2,25.1,30.28,North,355,0.0,0.0,78,0.00,,,0.00,VWS V15.00,2017-02-20 19:21:00,
2017-02-20 14:22:00,31.2,25.1,30.28,North,355,0.0,0.0,78,0.00,,,0.00,VWS V15.00,2017-02-20 19:22:00,
2017-02-20 14:23:00,31.1,25.0,30.28,North,355,0.0,0.0,78,0.00,,,0.00,VWS V15.00,2017-02-20 19:23:00,
2017-02-20 14:24:00,31.0,25.0,30.28,North,355,0.0,0.0,78,0.00,,,0.00,VWS V15.00,2017-02-20 19:24:00,
2017-02-20 14:25:00,31.0,25.0,30.28,North,355,0.0,0.0,78,0.00,,,0.00,VWS V15.00,2017-02-20 19:25:00,
2017-02-20 14:26:00,30.9,24.9,30.28,North,355,0.0,0.0,78,0.00,,,0.00,VWS V15.00,2017-02-20 19:26:00,
2017-02-20 14:27:00,30.8,24.8,30.28,North,355,0.0,0.0,78,0.00,,,0.00,VWS V15.00,2017-02-20 19:27:00,
2017-02-20 14:28:00,30.7,25.0,30.28,North,355,0.0,0.0,79,0.00,,,0.00,VWS V15.00,2017-02-20 19:28:00,
2017-02-20 14:29:00,30.7,25.0,30.28,North,355,0.0,0.0,79,0.00,,,0.00,VWS V15.00,2017-02-20 19:29:00,
2017-02-20 14:30:00,30.6,24.9,30.28,North,355,0.0,0.0,79,0.00,,,0.00,VWS V15.00,2017-02-20 19:30:00,
2017-02-20 14:31:00,30.6,24.9,30.28,North,355,0.0,0.0,79,0.00,,,0.00,VWS V15.00,2017-02-20 19:31:00,
2017-02-20 14:32:00,30.5,24.8,30.28,North,355,0.0,0.0,79,0.00,,,0.00,VWS V15.00,2017-02-20 19:32:00,
2017-02-20 14:33:00,30.5,24.8,30.28,North,355,0.0,0.0,79,0.00,,,0.00,VWS V15.00,2017-02-20 19:33:00,
2017-02-20 14:34:00,30.4,25.0,30.28,North,355,0.0,0.0,80,0.00,,,0.00,VWS V15.00,2017-02-20 19:34:00,
2017-02-20 14:35:00,39.7,28.9,30.14,North,349,7.0,10.0,65,0.00,,SCT046,0.00,VWS V15.00,2017-02-20 19:35:00,
2017-02-20 14:36:00,30.3,24.9,30.28,North,355,0.0,0.0,80,0.00,,,0.00,VWS V15.00,2017-02-20 19:36:00,
2017-02-20 14:37:00,30.2,24.8,30.28,North,355,0.0,0.0,80,0.00,,,0.00,VWS V15.00,2017-02-20 19:37:00,
2017-02-20 14:38:00,30.2,24.8,30.28,North,355,0.0,0.0,80,0.00,,,0.00,VWS V15.00,2017-02-20 19:38:00,
2017-02-20 14:39:00,30.1,24.7,30.28,North,355,0.0,0.0,80,0.00,,,0.00,VWS V15.00,2017-02-20 19:39:00,
2017-02-20 14:40:00,30.0,24.6,30.28,North,355,0.0,0.0,80,0.00,,,0.00,VWS V15.00,2017-02-20 19:40:00,
2017-02-20 14:41:00,29.9,24.5,30.28,North,355,0.0,0.0,80,0.00,,,0.00,VWS V15.00,2017-02-20 19:41:00,
2017-02-20 14:42:00,29.9,24.5,30.28,North,355,0.0,0.0,80,0.00,,,0.00,VWS V15.00,2017-02-20 19:42:00,
2017-02-20 14:43:00,29.9,24.8,30.28,North,355,0.0,0.0,81,0.00,,,0.00,VWS V15.00,2017-02-20 19:43:00,
2017-02-20 14:44:00,29.8,24.7,30.28,North,355,0.0,0.0,81,0.00,,,0.00,VWS V15.00,2017-02-20 19:44:00,
2017-02-20 14:45:00,29.8,24.7,30.28,North,355,0.0,0.0,81,0.00,,,0.00,VWS V15.00,2017-02-20 19:45:00,
2017-02-20 14:46:00,29.8,24.7,30.28,North,355,0.0,0.0,81,0.00,,,0.00,VWS V15.00,2017-02-20 19:46:00,
2017-02-20 14:47:00,29.7,24.6,30.28,North,355,0.0,0.0,81,0.00,,,0.00,VWS V15.00,2017-02-20 19:47:00,
2017-02-20 14:48:00,29.6,24.5,30.28,North,355,0.0,0.0,81,0.00,,,0.00,VWS V15.00,2017-02-20 19:48:00,
2017-02-20 14:49:00,29.6,24.5,30.28,North,355,0.0,0.0,81,0.00,,,0.00,VWS V15.00,2017-02-20 19:49:00,
2017-02-20 14:50:00,29.6,24.5,30.28,North,355,0.0,0.0,81,0.00,,,0.00,VWS V15.00,2017-02-20 19:50:00,
2017-02-20 14:51:00,29.5,24.4,30.28,North,355,0.0,0.0,81,0.00,,,0.00,VWS V15.00,2017-02-20 19:51:00,
2017-02-20 14:52:00,29.5,24.4,30.28,North,355,0.0,0.0,81,0.00,,,0.00,VWS V15.00,2017-02-20 19:52:00,
2017-02-20 14:53:00,29.5,24.4,30.28,North,355,0.0,0.0,81,0.00,,,0.00,VWS V15.00,2017-02-20 19:53:00,
2017-02-20 14:54:00,29.4,24.3,30.28,North,355,0.0,0.0,81,0.00,,,0.00,VWS V15.00,2017-02-20 19:54:00,
2017-02-20 14:55:00,29.4,24.3,30.28,North,355,0.0,0.0,81,0.00,,,0.00,VWS V15.00,2017-02-20 19:55:00,
2017-02-20 14:56:00,29.3,24.2,30.28,North,355,0.0,0.0,81,0.00,,,0.00,VWS V15.00,2017-02-20 19:56:00,
2017-02-20 14:57:00,29.3,24.5,30.28,North,355,0.0,0.0,82,0.00,,,0.00,VWS V15.00,2017-02-20 19:57:00,
2017-02-20 14:58:00,29.3,24.5,30.28,North,355,0.0,0.0,82,0.00,,,0.00,VWS V15.00,2017-02-20 19:58:00,
2017-02-20 14:59:00,29.2,24.4,30.28,North,355,0.0,0.0,82,0.00,,,0.00,VWS V15.00,2017-02-20 19:59:00,
2017-02-20 15:00:00,29.2,24.4,30.28,North,355,0.0,0.0,82,0.00,,,0.00,VWS V15.00,2017-02-20 20:00:00,
2017-02-20 15:01:00,29.1,24.3,30.29,North,355,0.0,0.0,82,0.00,,,0.00,VWS V15.00,2017-02-20 20:01:00,
2017-02-20 15:02:00,29.1,24.3,30.29,North,355,0.0,0.0,82,0.00,,,0.00,VWS V15.00,2017-02-20 20:02:00,
2017-02-20 15:03:00,29.0,24.2,30.29,North,355,0.0,0.0,82,0.00,,,0.00,VWS V15.00,2017-02-20 20:03:00,
2017-02-20 15:04:00,29.0,24.2,30.29,North,355,0.0,0.0,82,0.00,,,0.00,VWS V15.00,2017-02-20 20:04:00,
2017-02-20 15:05:00,29.0,24.2,30.29,North,355,0.0,0.0,82,0.00,,,0.00,VWS V15.00,2017-02-20 20:05:00,
2017-02-20 15:06:00,28.9,24.4,30.29,North,355,0.0,0.0,83,0.00,,,0.00,VWS V15.00,2017-02-20 20:06:00,
2017-02-20 15:07:00,28.9,24.4,30.29,North,355,0.0,0.0,83,0.00,,,0.00,VWS V15.00,2017-02-20 20:07:00,
2017-02-20 15:08:00,28.8,24.3,30.29,North,355,0.0,0.0,83,0.00,,,0.00,VWS V15.00,2017-02-20 20:08:00,
2017-02-20 15:09:00,28.8,24.3,30.29,North,355,0.0,0.0,83,0.00,,,0.00,VWS V15.00,2017-02-20 20:09:00,
2017-02-20 15:10:00,28.7,24.2,30.29,North,355,0.0,0.0,83,0.00,,,0.00,VWS V15.00,2017-02-20 20:10:00,
2017-02-20 15:11:00,28.7,24.2,30.29,North,355,0.0,0.0,83,0.00,,,0.00,VWS V15.00,2017-02-20 20:11:00,
2017-02-20 15:12:00,28.7,24.2,30.29,North,355,0.0,0.0,83,0.00,,,0.00,VWS V15.00,2017-02-20 20:12:00,
2017-02-20 15:13:00,28.6,24.1,30.29,North,355,0.0,0.0,83,0.00,,,0.00,VWS V15.00,2017-02-20 20:13:00,
2017-02-20 15:14:00,28.6,24.1,30.29,North,355,0.0,0.0,83,0.00,,,0.00,VWS V15.00,2017-02-20 20:14:00,
2017-02-20 15:15:00,28.5,24.0,30.29,North,355,0.0,0.0,83,0.00,,,0.00,VWS V15.00,2017-02-20 20:15:00,
2017-02-20 15:16:00,28.5,24.0,30.29,North,355,0.0,0.0,83,0.00,,,0.00,VWS V15.00,2017-02-20 20:16:00,
2017-02-20 15:17:00,28.5,24.0,30.30,North,355,0.0,0.0,83,0.00,,,0.00,VWS V15.00,2017-02-20 20:17:00,
2017-02-20 15:18:00,28.5,24.0,30.29,North,355,0.0,0.0,83,0.00,,,0.00,VWS V15.00,2017-02-20 20:18:00,
2017-02-20 15:19:00,28.4,23.9,30.29,North,355,0.0,0.0,83,0.00,,,0.00,VWS V15.00,2017-02-20 20:19:00,
2017-02-20 15:20:00,28.4,23.9,30.29,North,355,0.0,0.0,83,0.00,,,0.00,VWS V15.00,2017-02-20 20:20:00,
2017-02-20 15:21:00,28.4,23.9,30.29,North,355,0.0,0.0,83,0.00,,,0.00,VWS V15.00,2017-02-20 20:21:00,
2017-02-20 15:22:00,28.3,23.8,30.29,North,355,0.0,0.0,83,0.00,,,0.00,VWS V15.00,2017-02-20 20:22:00,
2017-02-20 15:23:00,28.3,23.8,30.30,North,355,0.0,0.0,83,0.00,,,0.00,VWS V15.00,2017-02-20 20:23:00,
2017-02-20 15:24:00,28.3,23.8,30.29,North,355,0.0,0.0,83,0.00,,,0.00,VWS V15.00,2017-02-20 20:24:00,
2017-02-20 15:25:00,28.2,24.0,30.30,North,355,0.0,0.0,84,0.00,,,0.00,VWS V15.00,2017-02-20 20:25:00,
2017-02-20 15:26:00,28.2,24.0,30.30,North,355,0.0,0.0,84,0.00,,,0.00,VWS V15.00,2017-02-20 20:26:00,
2017-02-20 15:27:00,28.2,24.0,30.30,North,355,0.0,0.0,84,0.00,,,0.00,VWS V15.00,2017-02-20 20:27:00,
2017-02-20 15:28:00,28.1,23.9,30.30,North,355,0.0,0.0,84,0.00,,,0.00,VWS V15.00,2017-02-20 20:28:00,
2017-02-20 15:29:00,28.1,23.9,30.30,North,355,0.0,0.0,84,0.00,,,0.00,VWS V15.00,2017-02-20 20:29:00,
2017-02-20 15:30:00,28.1,23.9,30.30,North,355,0.0,0.0,84,0.00,,,0.00,VWS V15.00,2017-02-20 20:30:00,
2017-02-20 15:31:00,28.0,23.8,30.29,North,355,0.0,0.0,84,0.00,,,0.00,VWS V15.00,2017-02-20 20:31:00,
2017-02-20 15:32:00,28.0,23.8,30.30,North,355,0.0,0.0,84,0.00,,,0.00,VWS V15.00,2017-02-20 20:32:00,
2017-02-20 15:33:00,28.0,23.8,30.30,North,355,0.0,0.0,84,0.00,,,0.00,VWS V15.00,2017-02-20 20:33:00,
2017-02-20 15:34:00,27.9,23.7,30.29,North,355,0.0,0.0,84,0.00,,,0.00,VWS V15.00,2017-02-20 20:34:00,
2017-02-20 15:35:00,27.9,23.7,30.29,North,355,0.0,0.0,84,0.00,,,0.00,VWS V15.00,2017-02-20 20:35:00,
2017-02-20 15:36:00,27.9,23.7,30.29,North,355,0.0,0.0,84,0.00,,,0.00,VWS V15.00,2017-02-20 20:36:00,
2017-02-20 15:37:00,27.8,23.6,30.29,North,355,0.0,0.0,84,0.00,,,0.00,VWS V15.00,2017-02-20 20:37:00,
2017-02-20 15:38:00,27.8,23.6,30.30,North,355,0.0,0.0,84,0.00,,,0.00,VWS V15.00,2017-02-20 20:38:00,
2017-02-20 15:39:00,27.8,23.6,30.30,North,355,0.0,0.0,84,0.00,,,0.00,VWS V15.00,2017-02-20 20:39:00,
2017-02-20 15:40:00,27.8,23.6,30.30,North,355,0.0,0.0,84,0.00,,,0.00,VWS V15.00,2017-02-20 20:40:00,
2017-02-20 15:41:00,27.8,23.6,30.30,North,355,0.0,0.0,84,0.00,,CLR,0.00,VWS V15.00,2017-02-20 20:41:00,
2017-02-20 15:42:00,27.7,23.5,30.30,North,355,0.0,0.0,84,0.00,,CLR,0.00,VWS V15.00,2017-02-20 20:42:00,
2017-02-20 15:43:00,27.7,23.5,30.30,North,355,0.0,0.0,84,0.00,,CLR,0.00,VWS V15.00,2017-02-20 20:43:00,
2017-02-20 15:44:00,27.7,23.5,30.30,North,355,0.0,0.0,84,0.00,,CLR,0.00,VWS V15.00,2017-02-20 20:44:00,
2017-02-20 15:45:00,27.6,23.4,30.30,North,355,0.0,0.0,84,0.00,,CLR,0.00,VWS V15.00,2017-02-20 20:45:00,
2017-02-20 15:46:00,27.6,23.7,30.30,North,355,0.0,0.0,85,0.00,,CLR,0.00,VWS V15.00,2017-02-20 20:46:00,
2017-02-20 15:47:00,27.6,23.7,30.30,North,355,0.0,0.0,85,0.00,,CLR,0.00,VWS V15.00,2017-02-20 20:47:00,
2017-02-20 15:48:00,27.6,23.7,30.30,North,355,0.0,0.0,85,0.00,,CLR,0.00,VWS V15.00,2017-02-20 20:48:00,
2017-02-20 15:49:00,27.5,23.6,30.30,North,355,0.0,0.0,85,0.00,,CLR,0.00,VWS V15.00,2017-02-20 20:49:00,
2017-02-20 17:53:00,36.1,28.0,30.25,North,355,0.0,6.0,72,0.00,,CLR,0.00,VWS V15.00,2017-02-20 22:53:00,
2017-02-20 20:40:00,27.8,23.6,30.30,North,355,0.0,0.0,84,0.00,,CLR,0.00,VWS V15.00,2017-02-21 01:40:00,